Wetterdaten: Samstag, 17.01.2015
Datum Zeit Temp. Aussen +5cm Feuchte Auss Luftdruck Regen Sonnenschein Regendauer Solar Windben
17.01.2015 00:00 4,4 C 3,3 C 92 % 1008,6 hPa 0,0 l/m 0 min 2 min 0 W/m 12,6 km/h (3 Bft)
17.01.2015 00:02 4,4 C 3,3 C 92 % 1008,6 hPa 0,0 l/m 0 min 2 min 0 W/m 10,5 km/h (2 Bft)
17.01.2015 00:06 4,4 C 3,3 C 92 % 1008,6 hPa 0,0 l/m 0 min 2 min 0 W/m 20,9 km/h (4 Bft)
17.01.2015 00:08 4,4 C 3,3 C 92 % 1008,7 hPa 0,0 l/m 0 min 2 min 0 W/m 16,7 km/h (3 Bft)
17.01.2015 00:10 4,4 C 3,3 C 92 % 1008,7 hPa 0,0 l/m 0 min 2 min 0 W/m 16,7 km/h (3 Bft)
17.01.2015 00:12 4,4 C 3,3 C 92 % 1008,8 hPa 0,0 l/m 0 min 0 min 0 W/m 14,6 km/h (3 Bft)
17.01.2015 00:14 4,4 C 2,8 C 92 % 1008,8 hPa 0,0 l/m 0 min 0 min 0 W/m 10,5 km/h (2 Bft)
17.01.2015 00:16 4,4 C 2,8 C 92 % 1008,8 hPa 0,0 l/m 0 min 0 min 0 W/m 10,5 km/h (2 Bft)
17.01.2015 00:18 4,4 C 2,8 C 92 % 1008,8 hPa 0,0 l/m 0 min 0 min 0 W/m 8,4 km/h (2 Bft)
17.01.2015 00:20 4,4 C 2,8 C 93 % 1008,8 hPa 0,0 l/m 0 min 0 min 0 W/m 8,4 km/h (2 Bft)
17.01.2015 00:22 4,4 C 2,8 C 93 % 1008,9 hPa 0,0 l/m 0 min 0 min 0 W/m 10,5 km/h (2 Bft)
17.01.2015 00:24 4,4 C 2,8 C 93 % 1008,9 hPa 0,0 l/m 0 min 0 min 0 W/m 12,6 km/h (3 Bft)
17.01.2015 00:26 4,4 C 2,8 C 93 % 1008,9 hPa 0,0 l/m 0 min 0 min 0 W/m 10,5 km/h (2 Bft)
17.01.2015 00:28 4,4 C 2,8 C 93 % 1008,9 hPa 0,0 l/m 0 min 0 min 0 W/m 12,6 km/h (3 Bft)
17.01.2015 00:30 4,4 C 2,8 C 93 % 1008,9 hPa 0,0 l/m 0 min 0 min 0 W/m 10,5 km/h (2 Bft)
17.01.2015 00:32 4,4 C 2,8 C 93 % 1008,8 hPa 0,0 l/m 0 min 0 min 0 W/m 8,4 km/h (2 Bft)
17.01.2015 00:34 4,4 C 2,8 C 93 % 1008,9 hPa 0,0 l/m 0 min 0 min 0 W/m 6,3 km/h (2 Bft)
17.01.2015 00:36 4,4 C 2,8 C 92 % 1008,9 hPa 0,0 l/m 0 min 0 min 0 W/m 6,3 km/h (2 Bft)
17.01.2015 00:38 4,3 C 2,8 C 93 % 1009,0 hPa 0,0 l/m 0 min 0 min 0 W/m 8,4 km/h (2 Bft)
17.01.2015 00:40 4,3 C 2,8 C 92 % 1009,0 hPa 0,0 l/m 0 min 0 min 0 W/m 8,4 km/h (2 Bft)
17.01.2015 00:42 4,3 C 2,8 C 92 % 1009,0 hPa 0,0 l/m 0 min 0 min 0 W/m 8,4 km/h (2 Bft)
17.01.2015 00:44 4,3 C 2,8 C 92 % 1009,0 hPa 0,0 l/m 0 min 0 min 0 W/m 8,4 km/h (2 Bft)
17.01.2015 00:46 4,3 C 2,8 C 92 % 1009,0 hPa 0,0 l/m 0 min 0 min 0 W/m 6,3 km/h (2 Bft)
17.01.2015 00:48 4,2 C 2,8 C 92 % 1009,0 hPa 0,0 l/m 0 min 0 min 0 W/m 6,3 km/h (2 Bft)
17.01.2015 00:50 4,2 C 2,8 C 92 % 1008,9 hPa 0,0 l/m 0 min 0 min 0 W/m 6,3 km/h (2 Bft)
17.01.2015 00:52 4,2 C 2,8 C 92 % 1009,0 hPa 0,0 l/m 0 min 0 min 0 W/m 4,2 km/h (1 Bft)
17.01.2015 00:54 4,2 C 2,8 C 92 % 1009,0 hPa 0,0 l/m 0 min 0 min 0 W/m 6,3 km/h (2 Bft)
17.01.2015 00:56 4,2 C 2,2 C 92 % 1009,0 hPa 0,0 l/m 0 min 0 min 0 W/m 8,4 km/h (2 Bft)
17.01.2015 00:58 4,2 C 2,2 C 92 % 1009,0 hPa 0,0 l/m 0 min 0 min 0 W/m 4,2 km/h (1 Bft)
17.01.2015 01:00 4,2 C 2,2 C 92 % 1009,0 hPa 0,0 l/m 0 min 0 min 0 W/m 6,3 km/h (2 Bft)
17.01.2015 01:02 4,1 C 2,2 C 92 % 1009,0 hPa 0,0 l/m 0 min 0 min 0 W/m 8,4 km/h (2 Bft)
17.01.2015 01:04 4,1 C 2,2 C 92 % 1009,1 hPa 0,0 l/m 0 min 0 min 0 W/m 8,4 km/h (2 Bft)
17.01.2015 01:06 4,1 C 2,2 C 92 % 1009,1 hPa 0,0 l/m 0 min 0 min 0 W/m 6,3 km/h (2 Bft)
17.01.2015 01:08 4,1 C 2,2 C 92 % 1009,1 hPa 0,0 l/m 0 min 0 min 0 W/m 10,5 km/h (2 Bft)
17.01.2015 01:10 4,1 C 2,8 C 92 % 1009,1 hPa 0,0 l/m 0 min 0 min 0 W/m 12,6 km/h (3 Bft)
17.01.2015 01:12 4,0 C 2,8 C 92 % 1009,1 hPa 0,0 l/m 0 min 0 min 0 W/m 12,6 km/h (3 Bft)
17.01.2015 01:14 4,0 C 2,8 C 92 % 1009,1 hPa 0,0 l/m 0 min 0 min 0 W/m 8,4 km/h (2 Bft)
17.01.2015 01:16 4,0 C 2,8 C 92 % 1009,1 hPa 0,0 l/m 0 min 0 min 0 W/m 6,3 km/h (2 Bft)
17.01.2015 01:18 4,0 C 2,8 C 92 % 1009,2 hPa 0,0 l/m 0 min 0 min 0 W/m 6,3 km/h (2 Bft)
17.01.2015 01:20 4,0 C 2,2 C 92 % 1009,3 hPa 0,0 l/m 0 min 0 min 0 W/m 8,4 km/h (2 Bft)
17.01.2015 01:22 3,9 C 2,8 C 92 % 1009,4 hPa 0,0 l/m 0 min 0 min 0 W/m 10,5 km/h (2 Bft)
17.01.2015 01:24 4,0 C 2,8 C 92 % 1009,4 hPa 0,0 l/m 0 min 0 min 0 W/m 8,4 km/h (2 Bft)
17.01.2015 01:26 3,9 C 2,8 C 92 % 1009,5 hPa 0,0 l/m 0 min 0 min 0 W/m 10,5 km/h (2 Bft)
17.01.2015 01:28 3,9 C 2,8 C 92 % 1009,5 hPa 0,0 l/m 0 min 0 min 0 W/m 10,5 km/h (2 Bft)
17.01.2015 01:30 3,9 C 2,8 C 92 % 1009,6 hPa 0,0 l/m 0 min 0 min 0 W/m 8,4 km/h (2 Bft)
17.01.2015 01:32 3,9 C 2,8 C 92 % 1009,5 hPa 0,0 l/m 0 min 0 min 0 W/m 12,6 km/h (3 Bft)
17.01.2015 01:34 3,9 C 2,8 C 92 % 1009,5 hPa 0,0 l/m 0 min 0 min 0 W/m 12,6 km/h (3 Bft)
17.01.2015 01:36 3,9 C 2,8 C 92 % 1009,6 hPa 0,0 l/m 0 min 0 min 0 W/m 6,3 km/h (2 Bft)
17.01.2015 01:38 3,9 C 2,8 C 92 % 1009,6 hPa 0,0 l/m 0 min 0 min 0 W/m 8,4 km/h (2 Bft)
17.01.2015 01:40 3,9 C 2,8 C 92 % 1009,6 hPa 0,0 l/m 0 min 0 min 0 W/m 8,4 km/h (2 Bft)
17.01.2015 01:42 3,9 C 2,2 C 92 % 1009,6 hPa 0,0 l/m 0 min 0 min 0 W/m 12,6 km/h (3 Bft)
17.01.2015 01:44 3,9 C 2,2 C 92 % 1009,6 hPa 0,0 l/m 0 min 0 min 0 W/m 8,4 km/h (2 Bft)
17.01.2015 01:46 3,9 C 2,2 C 92 % 1009,6 hPa 0,0 l/m 0 min 0 min 0 W/m 6,3 km/h (2 Bft)
17.01.2015 01:48 3,9 C 2,2 C 92 % 1009,6 hPa 0,0 l/m 0 min 0 min 0 W/m 6,3 km/h (2 Bft)
17.01.2015 01:50 3,9 C 2,2 C 92 % 1009,6 hPa 0,0 l/m 0 min 0 min 0 W/m 6,3 km/h (2 Bft)
17.01.2015 01:52 3,9 C 2,8 C 92 % 1009,7 hPa 0,0 l/m 0 min 0 min 0 W/m 8,4 km/h (2 Bft)
17.01.2015 01:54 3,9 C 2,8 C 92 % 1009,7 hPa 0,0 l/m 0 min 0 min 0 W/m 6,3 km/h (2 Bft)
17.01.2015 01:56 3,9 C 2,8 C 92 % 1009,7 hPa 0,0 l/m 0 min 0 min 0 W/m 10,5 km/h (2 Bft)
17.01.2015 01:58 3,9 C 2,2 C 92 % 1009,7 hPa 0,0 l/m 0 min 0 min 0 W/m 12,6 km/h (3 Bft)
17.01.2015 02:00 3,9 C 2,2 C 92 % 1009,7 hPa 0,0 l/m 0 min 0 min 0 W/m 6,3 km/h (2 Bft)
17.01.2015 02:02 3,9 C 2,2 C 92 % 1009,7 hPa 0,0 l/m 0 min 0 min 0 W/m 8,4 km/h (2 Bft)
17.01.2015 02:04 3,9 C 2,2 C 92 % 1009,8 hPa 0,0 l/m 0 min 0 min 0 W/m 8,4 km/h (2 Bft)
17.01.2015 02:06 3,9 C 2,2 C 92 % 1009,8 hPa 0,0 l/m 0 min 0 min 0 W/m 10,5 km/h (2 Bft)
17.01.2015 02:08 3,9 C 2,2 C 92 % 1009,9 hPa 0,0 l/m 0 min 0 min 0 W/m 8,4 km/h (2 Bft)
17.01.2015 02:10 3,9 C 2,2 C 92 % 1009,8 hPa 0,0 l/m 0 min 0 min 0 W/m 8,4 km/h (2 Bft)
17.01.2015 02:12 3,8 C 2,2 C 92 % 1009,9 hPa 0,0 l/m 0 min 0 min 0 W/m 10,5 km/h (2 Bft)
17.01.2015 02:14 3,8 C 2,2 C 92 % 1009,9 hPa 0,0 l/m 0 min 0 min 0 W/m 8,4 km/h (2 Bft)
17.01.2015 02:16 3,8 C 1,7 C 92 % 1009,9 hPa 0,0 l/m 0 min 0 min 0 W/m 10,5 km/h (2 Bft)
17.01.2015 02:18 3,8 C 1,7 C 92 % 1009,8 hPa 0,0 l/m 0 min 0 min 0 W/m 12,6 km/h (3 Bft)
17.01.2015 02:20 3,8 C 1,7 C 92 % 1009,8 hPa 0,0 l/m 0 min 0 min 0 W/m 12,6 km/h (3 Bft)
17.01.2015 02:22 3,8 C 2,2 C 92 % 1009,9 hPa 0,0 l/m 0 min 0 min 0 W/m 12,6 km/h (3 Bft)
17.01.2015 02:24 3,7 C 1,7 C 92 % 1009,9 hPa 0,0 l/m 0 min 0 min 0 W/m 10,5 km/h (2 Bft)
17.01.2015 02:26 3,7 C 1,7 C 92 % 1010,0 hPa 0,0 l/m 0 min 0 min 0 W/m 10,5 km/h (2 Bft)
17.01.2015 02:28 3,7 C 1,7 C 92 % 1010,0 hPa 0,0 l/m 0 min 0 min 0 W/m 12,6 km/h (3 Bft)
17.01.2015 02:30 3,7 C 2,2 C 92 % 1010,1 hPa 0,0 l/m 0 min 0 min 0 W/m 12,6 km/h (3 Bft)
17.01.2015 02:32 3,7 C 2,2 C 92 % 1010,2 hPa 0,0 l/m 0 min 0 min 0 W/m 12,6 km/h (3 Bft)
17.01.2015 02:34 3,6 C 2,2 C 92 % 1010,1 hPa 0,0 l/m 0 min 0 min 0 W/m 10,5 km/h (2 Bft)
17.01.2015 02:36 3,6 C 2,2 C 92 % 1010,2 hPa 0,0 l/m 0 min 0 min 0 W/m 12,6 km/h (3 Bft)
17.01.2015 02:38 3,6 C 2,2 C 93 % 1010,2 hPa 0,0 l/m 0 min 0 min 0 W/m 10,5 km/h (2 Bft)
17.01.2015 02:40 3,6 C 2,2 C 92 % 1010,2 hPa 0,0 l/m 0 min 0 min 0 W/m 10,5 km/h (2 Bft)
17.01.2015 02:42 3,6 C 2,2 C 92 % 1010,2 hPa 0,0 l/m 0 min 0 min 0 W/m 10,5 km/h (2 Bft)
17.01.2015 02:44 3,6 C 2,2 C 92 % 1010,2 hPa 0,0 l/m 0 min 0 min 0 W/m 14,6 km/h (3 Bft)
17.01.2015 02:46 3,6 C 2,2 C 93 % 1010,2 hPa 0,0 l/m 0 min 0 min 0 W/m 12,6 km/h (3 Bft)
17.01.2015 02:48 3,6 C 2,2 C 93 % 1010,2 hPa 0,0 l/m 0 min 0 min 0 W/m 14,6 km/h (3 Bft)
17.01.2015 02:50 3,6 C 2,2 C 93 % 1010,2 hPa 0,0 l/m 0 min 0 min 0 W/m 10,5 km/h (2 Bft)
17.01.2015 02:52 3,6 C 2,2 C 93 % 1010,2 hPa 0,0 l/m 0 min 0 min 0 W/m 8,4 km/h (2 Bft)
17.01.2015 02:54 3,6 C 1,7 C 93 % 1010,2 hPa 0,0 l/m 0 min 0 min 0 W/m 10,5 km/h (2 Bft)
17.01.2015 02:56 3,6 C 1,7 C 93 % 1010,2 hPa 0,0 l/m 0 min 0 min 0 W/m 8,4 km/h (2 Bft)
17.01.2015 02:58 3,6 C 1,7 C 93 % 1010,2 hPa 0,0 l/m 0 min 0 min 0 W/m 8,4 km/h (2 Bft)
17.01.2015 03:00 3,6 C 2,2 C 93 % 1010,2 hPa 0,0 l/m 0 min 0 min 0 W/m 16,7 km/h (3 Bft)
17.01.2015 03:02 3,5 C 2,2 C 93 % 1010,2 hPa 0,0 l/m 0 min 0 min 0 W/m 12,6 km/h (3 Bft)
17.01.2015 03:04 3,5 C 2,2 C 93 % 1010,2 hPa 0,0 l/m 0 min 0 min 0 W/m 14,6 km/h (3 Bft)
17.01.2015 03:06 3,5 C 2,2 C 93 % 1010,2 hPa 0,0 l/m 0 min 0 min 0 W/m 12,6 km/h (3 Bft)
17.01.2015 03:08 3,6 C 2,2 C 93 % 1010,3 hPa 0,0 l/m 0 min 0 min 0 W/m 10,5 km/h (2 Bft)
17.01.2015 03:10 3,5 C 2,2 C 93 % 1010,3 hPa 0,0 l/m 0 min 0 min 0 W/m 8,4 km/h (2 Bft)
17.01.2015 03:12 3,6 C 2,2 C 93 % 1010,3 hPa 0,0 l/m 0 min 0 min 0 W/m 10,5 km/h (2 Bft)
17.01.2015 03:14 3,6 C 2,2 C 93 % 1010,3 hPa 0,0 l/m 0 min 0 min 0 W/m 8,4 km/h (2 Bft)
17.01.2015 03:16 3,6 C 2,2 C 93 % 1010,4 hPa 0,0 l/m 0 min 0 min 0 W/m 10,5 km/h (2 Bft)
17.01.2015 03:18 3,6 C 2,2 C 93 % 1010,4 hPa 0,0 l/m 0 min 0 min 0 W/m 12,6 km/h (3 Bft)
17.01.2015 03:20 3,6 C 2,2 C 93 % 1010,5 hPa 0,0 l/m 0 min 0 min 0 W/m 10,5 km/h (2 Bft)
17.01.2015 03:22 3,6 C 2,2 C 93 % 1010,6 hPa 0,0 l/m 0 min 0 min 0 W/m 18,8 km/h (3 Bft)
17.01.2015 03:24 3,6 C 2,2 C 93 % 1010,6 hPa 0,0 l/m 0 min 0 min 0 W/m 18,8 km/h (3 Bft)
17.01.2015 03:26 3,6 C 2,2 C 93 % 1010,6 hPa 0,0 l/m 0 min 0 min 0 W/m 14,6 km/h (3 Bft)
17.01.2015 03:28 3,6 C 2,2 C 93 % 1010,6 hPa 0,0 l/m 0 min 0 min 0 W/m 16,7 km/h (3 Bft)
17.01.2015 03:30 3,6 C 2,2 C 94 % 1010,5 hPa 0,0 l/m 0 min 0 min 0 W/m 14,6 km/h (3 Bft)
17.01.2015 03:32 3,6 C 2,2 C 94 % 1010,7 hPa 0,0 l/m 0 min 0 min 0 W/m 16,7 km/h (3 Bft)
17.01.2015 03:34 3,6 C 2,2 C 94 % 1010,7 hPa 0,0 l/m 0 min 0 min 0 W/m 14,6 km/h (3 Bft)
17.01.2015 03:36 3,6 C 2,2 C 94 % 1010,7 hPa 0,0 l/m 0 min 0 min 0 W/m 18,8 km/h (3 Bft)
17.01.2015 03:38 3,6 C 2,2 C 94 % 1010,7 hPa 0,0 l/m 0 min 0 min 0 W/m 10,5 km/h (2 Bft)
17.01.2015 03:40 3,6 C 2,2 C 94 % 1010,7 hPa 0,0 l/m 0 min 0 min 0 W/m 18,8 km/h (3 Bft)
17.01.2015 03:42 3,6 C 2,2 C 94 % 1010,7 hPa 0,0 l/m 0 min 0 min 0 W/m 14,6 km/h (3 Bft)
17.01.2015 03:44 3,6 C 2,2 C 94 % 1010,7 hPa 0,0 l/m 0 min 0 min 0 W/m 8,4 km/h (2 Bft)
17.01.2015 03:46 3,6 C 2,2 C 94 % 1010,8 hPa 0,0 l/m 0 min 0 min 0 W/m 12,6 km/h (3 Bft)
17.01.2015 03:48 3,6 C 2,2 C 94 % 1010,8 hPa 0,0 l/m 0 min 0 min 0 W/m 8,4 km/h (2 Bft)
17.01.2015 03:50 3,6 C 2,2 C 94 % 1010,8 hPa 0,0 l/m 0 min 0 min 0 W/m 8,4 km/h (2 Bft)
17.01.2015 03:52 3,6 C 2,2 C 94 % 1010,9 hPa 0,0 l/m 0 min 0 min 0 W/m 12,6 km/h (3 Bft)
17.01.2015 03:54 3,6 C 2,2 C 94 % 1010,9 hPa 0,0 l/m 0 min 0 min 0 W/m 16,7 km/h (3 Bft)
17.01.2015 03:56 3,6 C 2,2 C 94 % 1010,8 hPa 0,0 l/m 0 min 0 min 0 W/m 14,6 km/h (3 Bft)
17.01.2015 03:58 3,6 C 2,2 C 94 % 1010,9 hPa 0,0 l/m 0 min 0 min 0 W/m 16,7 km/h (3 Bft)
17.01.2015 04:00 3,5 C 2,2 C 94 % 1010,9 hPa 0,0 l/m 0 min 0 min 0 W/m 12,6 km/h (3 Bft)
17.01.2015 04:02 3,5 C 2,2 C 94 % 1011,0 hPa 0,0 l/m 0 min 0 min 0 W/m 14,6 km/h (3 Bft)
17.01.2015 04:07 3,4 C 1,7 C 94 % 1011,0 hPa 0,0 l/m 0 min 0 min 0 W/m 10,5 km/h (2 Bft)
17.01.2015 04:08 3,4 C 1,7 C 94 % 1011,0 hPa 0,0 l/m 0 min 0 min 0 W/m 12,6 km/h (3 Bft)
17.01.2015 04:10 3,4 C 1,7 C 94 % 1011,0 hPa 0,0 l/m 0 min 0 min 0 W/m 10,5 km/h (2 Bft)
17.01.2015 04:12 3,4 C 1,7 C 94 % 1011,0 hPa 0,0 l/m 0 min 0 min 0 W/m 10,5 km/h (2 Bft)
17.01.2015 04:14 3,3 C 1,7 C 94 % 1011,0 hPa 0,0 l/m 0 min 0 min 0 W/m 6,3 km/h (2 Bft)
17.01.2015 04:16 3,3 C 1,7 C 94 % 1011,0 hPa 0,0 l/m 0 min 0 min 0 W/m 6,3 km/h (2 Bft)
17.01.2015 04:18 3,3 C 1,1 C 94 % 1011,1 hPa 0,0 l/m 0 min 0 min 0 W/m 8,4 km/h (2 Bft)
17.01.2015 04:20 3,3 C 1,1 C 94 % 1011,2 hPa 0,0 l/m 0 min 0 min 0 W/m 10,5 km/h (2 Bft)
17.01.2015 04:22 3,2 C 1,1 C 94 % 1011,2 hPa 0,0 l/m 0 min 0 min 0 W/m 12,6 km/h (3 Bft)
17.01.2015 04:24 3,2 C 1,1 C 94 % 1011,2 hPa 0,0 l/m 0 min 0 min 0 W/m 10,5 km/h (2 Bft)
17.01.2015 04:26 3,2 C 1,1 C 94 % 1011,2 hPa 0,0 l/m 0 min 0 min 0 W/m 10,5 km/h (2 Bft)
17.01.2015 04:28 3,1 C 1,1 C 94 % 1011,2 hPa 0,0 l/m 0 min 0 min 0 W/m 12,6 km/h (3 Bft)
17.01.2015 04:30 3,1 C 1,1 C 94 % 1011,2 hPa 0,0 l/m 0 min 0 min 0 W/m 10,5 km/h (2 Bft)
17.01.2015 04:32 3,0 C 1,1 C 94 % 1011,3 hPa 0,0 l/m 0 min 0 min 0 W/m 10,5 km/h (2 Bft)
17.01.2015 04:34 3,0 C 1,1 C 94 % 1011,3 hPa 0,0 l/m 0 min 0 min 0 W/m 8,4 km/h (2 Bft)
17.01.2015 04:36 2,9 C 1,1 C 94 % 1011,4 hPa 0,0 l/m 0 min 0 min 0 W/m 8,4 km/h (2 Bft)
17.01.2015 04:38 2,9 C 1,1 C 94 % 1011,4 hPa 0,0 l/m 0 min 0 min 0 W/m 8,4 km/h (2 Bft)
17.01.2015 04:40 2,9 C 1,1 C 94 % 1011,4 hPa 0,0 l/m 0 min 0 min 0 W/m 10,5 km/h (2 Bft)
17.01.2015 04:42 2,9 C 1,1 C 94 % 1011,4 hPa 0,0 l/m 0 min 0 min 0 W/m 12,6 km/h (3 Bft)
17.01.2015 04:44 2,8 C 1,1 C 94 % 1011,4 hPa 0,0 l/m 0 min 0 min 0 W/m 12,6 km/h (3 Bft)
17.01.2015 04:46 2,8 C 1,1 C 94 % 1011,4 hPa 0,0 l/m 0 min 0 min 0 W/m 16,7 km/h (3 Bft)
17.01.2015 04:48 2,8 C 1,1 C 94 % 1011,5 hPa 0,0 l/m 0 min 0 min 0 W/m 14,6 km/h (3 Bft)
17.01.2015 04:50 2,8 C 1,1 C 94 % 1011,5 hPa 0,0 l/m 0 min 0 min 0 W/m 12,6 km/h (3 Bft)
17.01.2015 04:52 2,7 C 1,1 C 94 % 1011,5 hPa 0,0 l/m 0 min 0 min 0 W/m 10,5 km/h (2 Bft)
17.01.2015 04:54 2,7 C 1,1 C 94 % 1011,6 hPa 0,0 l/m 0 min 0 min 0 W/m 10,5 km/h (2 Bft)
17.01.2015 04:56 2,7 C 1,1 C 94 % 1011,6 hPa 0,0 l/m 0 min 0 min 0 W/m 10,5 km/h (2 Bft)
17.01.2015 04:58 2,7 C 1,1 C 94 % 1011,6 hPa 0,0 l/m 0 min 0 min 0 W/m 10,5 km/h (2 Bft)
17.01.2015 05:00 2,6 C 1,1 C 94 % 1011,6 hPa 0,0 l/m 0 min 0 min 0 W/m 8,4 km/h (2 Bft)
17.01.2015 05:02 2,6 C 1,1 C 94 % 1011,6 hPa 0,0 l/m 0 min 0 min 0 W/m 10,5 km/h (2 Bft)
17.01.2015 05:04 2,6 C 1,1 C 94 % 1011,6 hPa 0,0 l/m 0 min 0 min 0 W/m 10,5 km/h (2 Bft)
17.01.2015 05:06 2,6 C 1,1 C 94 % 1011,6 hPa 0,0 l/m 0 min 0 min 0 W/m 8,4 km/h (2 Bft)
17.01.2015 05:08 2,6 C 0,6 C 94 % 1011,6 hPa 0,0 l/m 0 min 0 min 0 W/m 8,4 km/h (2 Bft)
17.01.2015 05:10 2,5 C 0,6 C 94 % 1011,6 hPa 0,0 l/m 0 min 0 min 0 W/m 8,4 km/h (2 Bft)
17.01.2015 05:12 2,5 C 0,6 C 94 % 1011,7 hPa 0,0 l/m 0 min 0 min 0 W/m 10,5 km/h (2 Bft)
17.01.2015 05:14 2,4 C 0,6 C 94 % 1011,6 hPa 0,0 l/m 0 min 0 min 0 W/m 10,5 km/h (2 Bft)
17.01.2015 05:16 2,4 C 0,6 C 94 % 1011,6 hPa 0,0 l/m 0 min 0 min 0 W/m 8,4 km/h (2 Bft)
17.01.2015 05:18 2,4 C 0,6 C 94 % 1011,6 hPa 0,0 l/m 0 min 0 min 0 W/m 6,3 km/h (2 Bft)
17.01.2015 05:20 2,4 C 0,6 C 94 % 1011,6 hPa 0,0 l/m 0 min 0 min 0 W/m 6,3 km/h (2 Bft)
17.01.2015 05:22 2,3 C 0,6 C 94 % 1011,6 hPa 0,0 l/m 0 min 0 min 0 W/m 8,4 km/h (2 Bft)
17.01.2015 05:24 2,3 C 0,6 C 94 % 1011,6 hPa 0,0 l/m 0 min 0 min 0 W/m 10,5 km/h (2 Bft)
17.01.2015 05:26 2,3 C 0,6 C 94 % 1011,7 hPa 0,0 l/m 0 min 0 min 0 W/m 8,4 km/h (2 Bft)
17.01.2015 05:28 2,2 C 0,6 C 94 % 1011,7 hPa 0,0 l/m 0 min 0 min 0 W/m 8,4 km/h (2 Bft)
17.01.2015 05:30 2,2 C 0,6 C 94 % 1011,8 hPa 0,0 l/m 0 min 0 min 0 W/m 6,3 km/h (2 Bft)
17.01.2015 05:32 2,2 C 0,6 C 94 % 1011,8 hPa 0,0 l/m 0 min 0 min 0 W/m 6,3 km/h (2 Bft)
17.01.2015 05:34 2,2 C 0,0 C 94 % 1011,8 hPa 0,0 l/m 0 min 0 min 0 W/m 4,2 km/h (1 Bft)
17.01.2015 05:36 2,1 C 0,0 C 94 % 1011,8 hPa 0,0 l/m 0 min 0 min 0 W/m 8,4 km/h (2 Bft)
17.01.2015 05:38 2,1 C 0,0 C 94 % 1011,8 hPa 0,0 l/m 0 min 0 min 0 W/m 10,5 km/h (2 Bft)
17.01.2015 05:40 2,1 C 0,0 C 94 % 1011,9 hPa 0,0 l/m 0 min 0 min 0 W/m 10,5 km/h (2 Bft)
17.01.2015 05:42 2,0 C 0,0 C 94 % 1011,9 hPa 0,0 l/m 0 min 0 min 0 W/m 10,5 km/h (2 Bft)
17.01.2015 05:44 2,0 C 0,6 C 94 % 1011,9 hPa 0,0 l/m 0 min 0 min 0 W/m 10,5 km/h (2 Bft)
17.01.2015 05:46 1,9 C 0,6 C 94 % 1012,0 hPa 0,0 l/m 0 min 0 min 0 W/m 8,4 km/h (2 Bft)
17.01.2015 05:48 1,9 C 0,6 C 94 % 1012,0 hPa 0,0 l/m 0 min 0 min 0 W/m 8,4 km/h (2 Bft)
17.01.2015 05:50 1,9 C 0,6 C 94 % 1012,0 hPa 0,0 l/m 0 min 0 min 0 W/m 10,5 km/h (2 Bft)
17.01.2015 05:52 1,9 C 0,6 C 94 % 1012,0 hPa 0,0 l/m 0 min 0 min 0 W/m 12,6 km/h (3 Bft)
17.01.2015 05:54 1,9 C 0,6 C 94 % 1012,0 hPa 0,0 l/m 0 min 0 min 0 W/m 10,5 km/h (2 Bft)
17.01.2015 05:56 1,9 C 0,6 C 94 % 1012,0 hPa 0,0 l/m 0 min 0 min 0 W/m 8,4 km/h (2 Bft)
17.01.2015 05:58 1,8 C 0,6 C 94 % 1012,0 hPa 0,0 l/m 0 min 0 min 0 W/m 8,4 km/h (2 Bft)
17.01.2015 06:00 1,8 C 0,6 C 94 % 1012,1 hPa 0,0 l/m 0 min 0 min 0 W/m 8,4 km/h (2 Bft)
17.01.2015 06:02 1,8 C 0,6 C 94 % 1012,1 hPa 0,0 l/m 0 min 0 min 0 W/m 8,4 km/h (2 Bft)
17.01.2015 06:06 1,8 C 0,0 C 94 % 1012,1 hPa 0,0 l/m 0 min 0 min 0 W/m 6,3 km/h (2 Bft)
17.01.2015 06:08 1,7 C 0,0 C 94 % 1012,1 hPa 0,0 l/m 0 min 0 min 0 W/m 8,4 km/h (2 Bft)
17.01.2015 06:10 1,7 C 0,0 C 94 % 1012,2 hPa 0,0 l/m 0 min 0 min 0 W/m 6,3 km/h (2 Bft)
17.01.2015 06:12 1,7 C 0,0 C 94 % 1012,2 hPa 0,0 l/m 0 min 0 min 0 W/m 6,3 km/h (2 Bft)
17.01.2015 06:14 1,7 C 0,0 C 94 % 1012,2 hPa 0,0 l/m 0 min 0 min 0 W/m 6,3 km/h (2 Bft)
17.01.2015 06:16 1,7 C 0,0 C 94 % 1012,3 hPa 0,0 l/m 0 min 0 min 0 W/m 6,3 km/h (2 Bft)
17.01.2015 06:18 1,6 C 0,0 C 94 % 1012,3 hPa 0,0 l/m 0 min 0 min 0 W/m 8,4 km/h (2 Bft)
17.01.2015 06:20 1,6 C 0,0 C 94 % 1012,4 hPa 0,0 l/m 0 min 0 min 0 W/m 6,3 km/h (2 Bft)
17.01.2015 06:22 1,6 C -0,6 C 94 % 1012,4 hPa 0,0 l/m 0 min 0 min 0 W/m 6,3 km/h (2 Bft)
17.01.2015 06:24 1,6 C -0,6 C 94 % 1012,4 hPa 0,0 l/m 0 min 0 min 0 W/m 6,3 km/h (2 Bft)
17.01.2015 06:26 1,6 C -0,6 C 94 % 1012,4 hPa 0,0 l/m 0 min 0 min 0 W/m 4,2 km/h (1 Bft)
17.01.2015 06:28 1,5 C -0,6 C 94 % 1012,4 hPa 0,0 l/m 0 min 0 min 0 W/m 6,3 km/h (2 Bft)
17.01.2015 06:30 1,5 C -0,6 C 94 % 1012,4 hPa 0,0 l/m 0 min 0 min 0 W/m 6,3 km/h (2 Bft)
17.01.2015 06:32 1,4 C -0,6 C 94 % 1012,4 hPa 0,0 l/m 0 min 0 min 0 W/m 6,3 km/h (2 Bft)
17.01.2015 06:34 1,4 C -0,6 C 94 % 1012,4 hPa 0,0 l/m 0 min 0 min 0 W/m 6,3 km/h (2 Bft)
17.01.2015 06:36 1,4 C -0,6 C 94 % 1012,4 hPa 0,0 l/m 0 min 0 min 0 W/m 6,3 km/h (2 Bft)
17.01.2015 06:38 1,4 C -0,6 C 94 % 1012,5 hPa 0,0 l/m 0 min 0 min 0 W/m 8,4 km/h (2 Bft)
17.01.2015 06:40 1,4 C -0,6 C 95 % 1012,4 hPa 0,0 l/m 0 min 0 min 0 W/m 6,3 km/h (2 Bft)
17.01.2015 06:42 1,3 C -0,6 C 94 % 1012,4 hPa 0,0 l/m 0 min 0 min 0 W/m 6,3 km/h (2 Bft)
17.01.2015 06:44 1,3 C -0,6 C 94 % 1012,4 hPa 0,0 l/m 0 min 0 min 0 W/m 8,4 km/h (2 Bft)
17.01.2015 06:46 1,3 C -0,6 C 94 % 1012,5 hPa 0,0 l/m 0 min 0 min 0 W/m 6,3 km/h (2 Bft)
17.01.2015 06:48 1,3 C -0,6 C 94 % 1012,5 hPa 0,0 l/m 0 min 0 min 0 W/m 12,6 km/h (3 Bft)
17.01.2015 06:50 1,3 C 0,0 C 94 % 1012,5 hPa 0,0 l/m 0 min 0 min 0 W/m 10,5 km/h (2 Bft)
17.01.2015 06:52 1,2 C 0,0 C 94 % 1012,6 hPa 0,0 l/m 0 min 0 min 0 W/m 12,6 km/h (3 Bft)
17.01.2015 06:54 1,2 C 0,0 C 95 % 1012,5 hPa 0,0 l/m 0 min 0 min 0 W/m 12,6 km/h (3 Bft)
17.01.2015 06:56 1,2 C 0,0 C 95 % 1012,6 hPa 0,0 l/m 0 min 0 min 0 W/m 12,6 km/h (3 Bft)
17.01.2015 06:58 1,2 C 0,6 C 95 % 1012,6 hPa 0,0 l/m 0 min 0 min 0 W/m 14,6 km/h (3 Bft)
17.01.2015 07:00 1,2 C 0,6 C 95 % 1012,6 hPa 0,0 l/m 0 min 0 min 0 W/m 14,6 km/h (3 Bft)
17.01.2015 07:02 1,3 C 0,6 C 95 % 1012,6 hPa 0,0 l/m 0 min 0 min 0 W/m 12,6 km/h (3 Bft)
17.01.2015 07:04 1,3 C 0,6 C 95 % 1012,7 hPa 0,0 l/m 0 min 0 min 0 W/m 14,6 km/h (3 Bft)
17.01.2015 07:06 1,3 C 0,6 C 95 % 1012,7 hPa 0,0 l/m 0 min 0 min 0 W/m 14,6 km/h (3 Bft)
17.01.2015 07:08 1,3 C 0,6 C 95 % 1012,7 hPa 0,0 l/m 0 min 0 min 0 W/m 14,6 km/h (3 Bft)
17.01.2015 07:10 1,3 C 0,6 C 95 % 1012,7 hPa 0,0 l/m 0 min 0 min 0 W/m 16,7 km/h (3 Bft)
17.01.2015 07:12 1,3 C 0,6 C 95 % 1012,7 hPa 0,0 l/m 0 min 0 min 0 W/m 12,6 km/h (3 Bft)
17.01.2015 07:14 1,3 C 0,6 C 95 % 1012,7 hPa 0,0 l/m 0 min 0 min 0 W/m 4,2 km/h (1 Bft)
17.01.2015 07:16 1,3 C 0,6 C 95 % 1012,7 hPa 0,0 l/m 0 min 0 min 0 W/m 10,5 km/h (2 Bft)
17.01.2015 07:18 1,3 C 0,6 C 95 % 1012,8 hPa 0,0 l/m 0 min 0 min 0 W/m 10,5 km/h (2 Bft)
17.01.2015 07:20 1,3 C 0,6 C 95 % 1012,8 hPa 0,0 l/m 0 min 0 min 0 W/m 14,6 km/h (3 Bft)
17.01.2015 07:22 1,4 C 0,6 C 95 % 1012,8 hPa 0,0 l/m 0 min 0 min 0 W/m 16,7 km/h (3 Bft)
17.01.2015 07:24 1,4 C 0,6 C 95 % 1012,9 hPa 0,0 l/m 0 min 0 min 0 W/m 14,6 km/h (3 Bft)
17.01.2015 07:26 1,4 C 0,6 C 95 % 1012,9 hPa 0,0 l/m 0 min 0 min 0 W/m 8,4 km/h (2 Bft)
17.01.2015 07:28 1,4 C 0,6 C 95 % 1013,0 hPa 0,0 l/m 0 min 0 min 0 W/m 16,7 km/h (3 Bft)
17.01.2015 07:30 1,4 C 0,6 C 95 % 1013,0 hPa 0,0 l/m 0 min 0 min 0 W/m 16,7 km/h (3 Bft)
17.01.2015 07:32 1,4 C 0,6 C 95 % 1013,0 hPa 0,0 l/m 0 min 0 min 0 W/m 14,6 km/h (3 Bft)
17.01.2015 07:34 1,4 C 0,6 C 95 % 1013,0 hPa 0,0 l/m 0 min 0 min 0 W/m 14,6 km/h (3 Bft)
17.01.2015 07:36 1,4 C 0,6 C 95 % 1013,0 hPa 0,0 l/m 0 min 0 min 0 W/m 16,7 km/h (3 Bft)
17.01.2015 07:38 1,4 C 0,6 C 95 % 1013,1 hPa 0,0 l/m 0 min 0 min 0 W/m 10,5 km/h (2 Bft)
17.01.2015 07:40 1,3 C 0,6 C 95 % 1013,1 hPa 0,0 l/m 0 min 0 min 0 W/m 10,5 km/h (2 Bft)
17.01.2015 07:42 1,3 C 0,6 C 95 % 1013,1 hPa 0,0 l/m 0 min 0 min 0 W/m 10,5 km/h (2 Bft)
17.01.2015 07:44 1,3 C 0,6 C 95 % 1013,1 hPa 0,0 l/m 0 min 0 min 0 W/m 6,3 km/h (2 Bft)
17.01.2015 07:46 1,3 C 0,0 C 95 % 1013,1 hPa 0,0 l/m 0 min 0 min 0 W/m 8,4 km/h (2 Bft)
17.01.2015 07:48 1,3 C 0,0 C 96 % 1013,2 hPa 0,0 l/m 0 min 0 min 0 W/m 12,6 km/h (3 Bft)
17.01.2015 07:50 1,3 C 0,0 C 95 % 1013,2 hPa 0,0 l/m 0 min 0 min 0 W/m 14,6 km/h (3 Bft)
17.01.2015 07:52 1,3 C 0,0 C 95 % 1013,2 hPa 0,0 l/m 0 min 0 min 0 W/m 6,3 km/h (2 Bft)
17.01.2015 07:54 1,3 C 0,0 C 95 % 1013,2 hPa 0,0 l/m 0 min 0 min 0 W/m 6,3 km/h (2 Bft)
17.01.2015 07:56 1,3 C 0,0 C 95 % 1013,2 hPa 0,0 l/m 0 min 0 min 0 W/m 10,5 km/h (2 Bft)
17.01.2015 07:58 1,2 C 0,0 C 95 % 1013,3 hPa 0,0 l/m 0 min 0 min 0 W/m 12,6 km/h (3 Bft)
17.01.2015 08:00 1,2 C 0,0 C 95 % 1013,3 hPa 0,0 l/m 0 min 0 min 0 W/m 14,6 km/h (3 Bft)
17.01.2015 08:02 1,2 C 0,0 C 95 % 1013,3 hPa 0,0 l/m 0 min 0 min 0 W/m 14,6 km/h (3 Bft)
17.01.2015 08:04 1,2 C 0,0 C 96 % 1013,3 hPa 0,0 l/m 0 min 0 min 0 W/m 10,5 km/h (2 Bft)
17.01.2015 08:06 1,1 C 0,0 C 96 % 1013,4 hPa 0,0 l/m 0 min 0 min 0 W/m 10,5 km/h (2 Bft)
17.01.2015 08:08 1,1 C 0,0 C 96 % 1013,4 hPa 0,0 l/m 0 min 0 min 0 W/m 10,5 km/h (2 Bft)
17.01.2015 08:10 1,1 C 0,0 C 96 % 1013,4 hPa 0,0 l/m 0 min 0 min 0 W/m 8,4 km/h (2 Bft)
17.01.2015 08:12 1,1 C 0,0 C 96 % 1013,5 hPa 0,0 l/m 0 min 0 min 0 W/m 12,6 km/h (3 Bft)
17.01.2015 08:14 1,1 C 0,0 C 96 % 1013,5 hPa 0,0 l/m 0 min 0 min 0 W/m 12,6 km/h (3 Bft)
17.01.2015 08:16 1,1 C 0,0 C 95 % 1013,5 hPa 0,0 l/m 0 min 0 min 0 W/m 12,6 km/h (3 Bft)
17.01.2015 08:18 1,1 C 0,0 C 95 % 1013,6 hPa 0,0 l/m 0 min 0 min 0 W/m 12,6 km/h (3 Bft)
17.01.2015 08:20 1,0 C 0,0 C 95 % 1013,5 hPa 0,0 l/m 0 min 0 min 0 W/m 8,4 km/h (2 Bft)
17.01.2015 08:22 1,0 C 0,0 C 96 % 1013,6 hPa 0,0 l/m 0 min 0 min 0 W/m 12,6 km/h (3 Bft)
17.01.2015 08:24 1,0 C 0,0 C 96 % 1013,6 hPa 0,0 l/m 0 min 0 min 0 W/m 10,5 km/h (2 Bft)
17.01.2015 08:26 1,0 C 0,0 C 96 % 1013,7 hPa 0,0 l/m 0 min 0 min 0 W/m 10,5 km/h (2 Bft)
17.01.2015 08:28 1,0 C 0,0 C 96 % 1013,7 hPa 0,0 l/m 0 min 0 min 0 W/m 10,5 km/h (2 Bft)
17.01.2015 08:30 1,0 C 0,0 C 96 % 1013,6 hPa 0,0 l/m 0 min 0 min 0 W/m 8,4 km/h (2 Bft)
17.01.2015 08:32 1,0 C 0,0 C 96 % 1013,7 hPa 0,0 l/m 0 min 0 min 1 W/m 10,5 km/h (2 Bft)
17.01.2015 08:34 0,9 C 0,0 C 96 % 1013,7 hPa 0,0 l/m 0 min 0 min 5 W/m 12,6 km/h (3 Bft)
17.01.2015 08:36 0,9 C 0,0 C 96 % 1013,7 hPa 0,0 l/m 0 min 0 min 5 W/m 12,6 km/h (3 Bft)
17.01.2015 08:38 0,9 C 0,0 C 96 % 1013,8 hPa 0,0 l/m 0 min 0 min 5 W/m 10,5 km/h (2 Bft)
17.01.2015 08:40 0,9 C 0,0 C 96 % 1013,8 hPa 0,0 l/m 0 min 0 min 5 W/m 14,6 km/h (3 Bft)
17.01.2015 08:42 0,9 C 0,0 C 96 % 1013,9 hPa 0,0 l/m 0 min 0 min 5 W/m 12,6 km/h (3 Bft)
17.01.2015 08:44 0,9 C 0,0 C 96 % 1013,9 hPa 0,0 l/m 0 min 0 min 6 W/m 10,5 km/h (2 Bft)
17.01.2015 08:46 0,9 C 0,0 C 96 % 1014,0 hPa 0,0 l/m 0 min 0 min 7 W/m 12,6 km/h (3 Bft)
17.01.2015 08:48 0,9 C 0,0 C 96 % 1014,1 hPa 0,0 l/m 0 min 0 min 7 W/m 12,6 km/h (3 Bft)
17.01.2015 08:50 0,9 C 0,0 C 96 % 1014,1 hPa 0,0 l/m 0 min 0 min 7 W/m 10,5 km/h (2 Bft)
17.01.2015 08:52 0,9 C 0,0 C 96 % 1014,1 hPa 0,0 l/m 0 min 0 min 7 W/m 10,5 km/h (2 Bft)
17.01.2015 08:54 0,9 C 0,0 C 96 % 1014,1 hPa 0,0 l/m 0 min 0 min 9 W/m 12,6 km/h (3 Bft)
17.01.2015 08:56 0,9 C 0,0 C 96 % 1014,2 hPa 0,0 l/m 0 min 0 min 10 W/m 10,5 km/h (2 Bft)
17.01.2015 08:58 0,9 C 0,0 C 96 % 1014,2 hPa 0,0 l/m 0 min 0 min 10 W/m 10,5 km/h (2 Bft)
17.01.2015 09:00 0,9 C 0,0 C 96 % 1014,2 hPa 0,0 l/m 0 min 0 min 11 W/m 10,5 km/h (2 Bft)
17.01.2015 09:02 0,9 C 0,0 C 96 % 1014,2 hPa 0,0 l/m 0 min 0 min 12 W/m 12,6 km/h (3 Bft)
17.01.2015 09:04 0,9 C 0,0 C 96 % 1014,3 hPa 0,0 l/m 0 min 0 min 14 W/m 12,6 km/h (3 Bft)
17.01.2015 09:06 0,9 C 0,0 C 96 % 1014,3 hPa 0,0 l/m 0 min 0 min 18 W/m 10,5 km/h (2 Bft)
17.01.2015 09:08 0,9 C 0,6 C 96 % 1014,3 hPa 0,0 l/m 0 min 0 min 20 W/m 8,4 km/h (2 Bft)
17.01.2015 09:10 0,9 C 0,0 C 96 % 1014,4 hPa 0,0 l/m 0 min 0 min 20 W/m 10,5 km/h (2 Bft)
17.01.2015 09:12 0,9 C 0,6 C 96 % 1014,4 hPa 0,0 l/m 0 min 0 min 18 W/m 8,4 km/h (2 Bft)
17.01.2015 09:14 0,9 C 0,6 C 96 % 1014,4 hPa 0,0 l/m 0 min 0 min 22 W/m 10,5 km/h (2 Bft)
17.01.2015 09:16 0,9 C 0,6 C 96 % 1014,4 hPa 0,0 l/m 0 min 0 min 23 W/m 8,4 km/h (2 Bft)
17.01.2015 09:18 0,9 C 0,0 C 96 % 1014,4 hPa 0,0 l/m 0 min 0 min 29 W/m 10,5 km/h (2 Bft)
17.01.2015 09:20 0,9 C 0,6 C 96 % 1014,4 hPa 0,0 l/m 0 min 0 min 29 W/m 6,3 km/h (2 Bft)
17.01.2015 09:22 0,9 C 0,6 C 96 % 1014,5 hPa 0,0 l/m 0 min 0 min 31 W/m 8,4 km/h (2 Bft)
17.01.2015 09:24 0,9 C 0,6 C 96 % 1014,4 hPa 0,0 l/m 0 min 0 min 31 W/m 10,5 km/h (2 Bft)
17.01.2015 09:26 0,9 C 0,6 C 96 % 1014,5 hPa 0,0 l/m 0 min 0 min 38 W/m 8,4 km/h (2 Bft)
17.01.2015 09:28 0,9 C 0,6 C 96 % 1014,6 hPa 0,0 l/m 0 min 0 min 50 W/m 6,3 km/h (2 Bft)
17.01.2015 09:30 0,9 C 0,6 C 96 % 1014,6 hPa 0,0 l/m 0 min 0 min 41 W/m 6,3 km/h (2 Bft)
17.01.2015 09:32 0,9 C 0,6 C 96 % 1014,6 hPa 0,0 l/m 0 min 0 min 45 W/m 10,5 km/h (2 Bft)
17.01.2015 09:34 0,9 C 0,6 C 96 % 1014,6 hPa 0,0 l/m 0 min 0 min 44 W/m 6,3 km/h (2 Bft)
17.01.2015 09:36 1,0 C 0,6 C 96 % 1014,6 hPa 0,0 l/m 0 min 0 min 43 W/m 6,3 km/h (2 Bft)
17.01.2015 09:38 1,0 C 0,6 C 96 % 1014,6 hPa 0,0 l/m 0 min 0 min 40 W/m 6,3 km/h (2 Bft)
17.01.2015 09:40 1,0 C 0,6 C 96 % 1014,6 hPa 0,0 l/m 0 min 0 min 50 W/m 8,4 km/h (2 Bft)
17.01.2015 09:42 1,0 C 0,6 C 96 % 1014,6 hPa 0,0 l/m 0 min 0 min 49 W/m 8,4 km/h (2 Bft)
17.01.2015 09:44 1,0 C 0,6 C 96 % 1014,6 hPa 0,0 l/m 0 min 0 min 68 W/m 8,4 km/h (2 Bft)
17.01.2015 09:46 1,0 C 0,6 C 96 % 1014,6 hPa 0,0 l/m 0 min 0 min 48 W/m 4,2 km/h (1 Bft)
17.01.2015 09:48 1,0 C 0,6 C 96 % 1014,7 hPa 0,0 l/m 0 min 0 min 67 W/m 4,2 km/h (1 Bft)
17.01.2015 09:50 1,0 C 0,6 C 96 % 1014,7 hPa 0,0 l/m 2 min 0 min 86 W/m 4,2 km/h (1 Bft)
17.01.2015 09:52 1,0 C 0,6 C 96 % 1014,7 hPa 0,0 l/m 2 min 0 min 82 W/m 6,3 km/h (2 Bft)
17.01.2015 09:54 1,0 C 0,6 C 96 % 1014,8 hPa 0,0 l/m 2 min 0 min 81 W/m 6,3 km/h (2 Bft)
17.01.2015 09:56 1,0 C 0,6 C 97 % 1014,8 hPa 0,0 l/m 0 min 0 min 73 W/m 6,3 km/h (2 Bft)
17.01.2015 09:58 1,1 C 0,6 C 97 % 1014,7 hPa 0,0 l/m 0 min 0 min 79 W/m 6,3 km/h (2 Bft)
17.01.2015 10:00 1,1 C 0,6 C 97 % 1014,8 hPa 0,0 l/m 2 min 0 min 86 W/m 6,3 km/h (2 Bft)
17.01.2015 10:02 1,1 C 0,6 C 97 % 1014,8 hPa 0,0 l/m 0 min 0 min 76 W/m 4,2 km/h (1 Bft)
17.01.2015 10:04 1,1 C 0,6 C 97 % 1014,9 hPa 0,0 l/m 2 min 0 min 93 W/m 4,2 km/h (1 Bft)
17.01.2015 10:06 1,1 C 0,6 C 97 % 1014,9 hPa 0,0 l/m 2 min 0 min 98 W/m 4,2 km/h (1 Bft)
17.01.2015 10:08 1,1 C 0,6 C 97 % 1014,8 hPa 0,0 l/m 2 min 0 min 106 W/m 4,2 km/h (1 Bft)
17.01.2015 10:10 1,1 C 0,6 C 97 % 1014,9 hPa 0,0 l/m 2 min 0 min 107 W/m 4,2 km/h (1 Bft)
17.01.2015 10:12 1,1 C 0,6 C 97 % 1014,8 hPa 0,0 l/m 2 min 0 min 114 W/m 4,2 km/h (1 Bft)
17.01.2015 10:14 1,1 C 0,6 C 97 % 1014,8 hPa 0,0 l/m 2 min 0 min 126 W/m 4,2 km/h (1 Bft)
17.01.2015 10:16 1,1 C 0,6 C 97 % 1014,9 hPa 0,0 l/m 2 min 0 min 133 W/m 2,1 km/h (1 Bft)
17.01.2015 10:18 1,1 C 0,6 C 97 % 1014,9 hPa 0,0 l/m 2 min 0 min 131 W/m 2,1 km/h (1 Bft)
17.01.2015 10:20 1,1 C 0,6 C 97 % 1014,9 hPa 0,0 l/m 2 min 0 min 140 W/m 4,2 km/h (1 Bft)
17.01.2015 10:22 1,1 C 0,6 C 97 % 1014,9 hPa 0,0 l/m 2 min 0 min 141 W/m 6,3 km/h (2 Bft)
17.01.2015 10:24 1,1 C 0,6 C 97 % 1014,9 hPa 0,0 l/m 2 min 0 min 149 W/m 6,3 km/h (2 Bft)
17.01.2015 10:26 1,1 C 0,6 C 97 % 1014,9 hPa 0,0 l/m 2 min 0 min 153 W/m 4,2 km/h (1 Bft)
17.01.2015 10:28 1,1 C 0,6 C 97 % 1014,9 hPa 0,0 l/m 2 min 0 min 154 W/m 4,2 km/h (1 Bft)
17.01.2015 10:30 1,1 C 0,6 C 97 % 1014,9 hPa 0,0 l/m 2 min 0 min 161 W/m 8,4 km/h (2 Bft)
17.01.2015 10:32 1,2 C 0,6 C 97 % 1015,0 hPa 0,0 l/m 2 min 0 min 164 W/m 6,3 km/h (2 Bft)
17.01.2015 10:34 1,2 C 0,6 C 97 % 1015,0 hPa 0,0 l/m 2 min 0 min 164 W/m 6,3 km/h (2 Bft)
17.01.2015 10:36 1,2 C 0,6 C 97 % 1015,0 hPa 0,0 l/m 2 min 0 min 169 W/m 6,3 km/h (2 Bft)
17.01.2015 10:38 1,2 C 1,1 C 97 % 1015,1 hPa 0,0 l/m 2 min 0 min 174 W/m 6,3 km/h (2 Bft)
17.01.2015 10:40 1,3 C 1,1 C 97 % 1015,1 hPa 0,0 l/m 2 min 0 min 178 W/m 12,6 km/h (3 Bft)
17.01.2015 10:42 1,3 C 1,1 C 97 % 1015,0 hPa 0,0 l/m 2 min 0 min 179 W/m 10,5 km/h (2 Bft)
17.01.2015 10:44 1,4 C 1,1 C 97 % 1015,0 hPa 0,0 l/m 2 min 0 min 184 W/m 8,4 km/h (2 Bft)
17.01.2015 10:46 1,4 C 1,1 C 97 % 1015,0 hPa 0,0 l/m 2 min 0 min 187 W/m 10,5 km/h (2 Bft)
17.01.2015 10:48 1,6 C 1,1 C 97 % 1015,1 hPa 0,0 l/m 2 min 0 min 190 W/m 8,4 km/h (2 Bft)
17.01.2015 10:50 1,6 C 1,1 C 97 % 1015,0 hPa 0,0 l/m 2 min 0 min 193 W/m 8,4 km/h (2 Bft)
17.01.2015 10:52 1,7 C 1,1 C 97 % 1015,1 hPa 0,0 l/m 2 min 0 min 193 W/m 12,6 km/h (3 Bft)
17.01.2015 10:54 1,7 C 1,1 C 97 % 1015,0 hPa 0,0 l/m 2 min 0 min 195 W/m 8,4 km/h (2 Bft)
17.01.2015 10:56 1,8 C 1,7 C 97 % 1015,1 hPa 0,0 l/m 2 min 0 min 199 W/m 10,5 km/h (2 Bft)
17.01.2015 10:58 1,8 C 1,7 C 97 % 1015,1 hPa 0,0 l/m 2 min 0 min 198 W/m 10,5 km/h (2 Bft)
17.01.2015 11:00 1,9 C 1,7 C 97 % 1015,1 hPa 0,0 l/m 2 min 0 min 205 W/m 14,6 km/h (3 Bft)
17.01.2015 11:02 2,0 C 1,7 C 97 % 1015,1 hPa 0,0 l/m 2 min 0 min 210 W/m 14,6 km/h (3 Bft)
17.01.2015 11:04 2,1 C 1,7 C 97 % 1015,1 hPa 0,0 l/m 2 min 0 min 212 W/m 12,6 km/h (3 Bft)
17.01.2015 11:06 2,1 C 1,7 C 97 % 1015,1 hPa 0,0 l/m 2 min 0 min 216 W/m 12,6 km/h (3 Bft)
17.01.2015 11:08 2,2 C 1,7 C 97 % 1015,1 hPa 0,0 l/m 2 min 0 min 219 W/m 14,6 km/h (3 Bft)
17.01.2015 11:10 2,2 C 1,7 C 97 % 1015,2 hPa 0,0 l/m 2 min 0 min 220 W/m 10,5 km/h (2 Bft)
17.01.2015 11:12 2,3 C 1,7 C 97 % 1015,2 hPa 0,0 l/m 2 min 0 min 221 W/m 14,6 km/h (3 Bft)
17.01.2015 11:14 2,4 C 1,7 C 97 % 1015,2 hPa 0,0 l/m 2 min 0 min 220 W/m 14,6 km/h (3 Bft)
17.01.2015 11:16 2,4 C 1,7 C 97 % 1015,2 hPa 0,0 l/m 2 min 0 min 225 W/m 14,6 km/h (3 Bft)
17.01.2015 11:18 2,5 C 1,7 C 97 % 1015,2 hPa 0,0 l/m 2 min 0 min 230 W/m 12,6 km/h (3 Bft)
17.01.2015 11:20 2,6 C 1,7 C 97 % 1015,2 hPa 0,0 l/m 2 min 0 min 230 W/m 12,6 km/h (3 Bft)
17.01.2015 11:22 2,7 C 2,2 C 97 % 1015,3 hPa 0,0 l/m 2 min 0 min 231 W/m 16,7 km/h (3 Bft)
17.01.2015 11:24 2,7 C 2,2 C 97 % 1015,2 hPa 0,0 l/m 2 min 0 min 231 W/m 10,5 km/h (2 Bft)
17.01.2015 11:26 2,8 C 2,2 C 97 % 1015,2 hPa 0,0 l/m 2 min 0 min 238 W/m 12,6 km/h (3 Bft)
17.01.2015 11:28 2,8 C 2,2 C 97 % 1015,2 hPa 0,0 l/m 2 min 0 min 240 W/m 12,6 km/h (3 Bft)
17.01.2015 11:30 2,9 C 2,2 C 97 % 1015,1 hPa 0,0 l/m 2 min 0 min 245 W/m 16,7 km/h (3 Bft)
17.01.2015 11:32 2,9 C 2,2 C 97 % 1015,2 hPa 0,0 l/m 2 min 0 min 248 W/m 14,6 km/h (3 Bft)
17.01.2015 11:34 3,0 C 2,2 C 97 % 1015,1 hPa 0,0 l/m 2 min 0 min 249 W/m 12,6 km/h (3 Bft)
17.01.2015 11:36 3,1 C 2,2 C 97 % 1015,1 hPa 0,0 l/m 2 min 0 min 252 W/m 8,4 km/h (2 Bft)
17.01.2015 11:38 3,1 C 2,2 C 97 % 1015,1 hPa 0,0 l/m 2 min 0 min 254 W/m 14,6 km/h (3 Bft)
17.01.2015 11:40 3,2 C 2,2 C 97 % 1015,1 hPa 0,0 l/m 2 min 0 min 256 W/m 14,6 km/h (3 Bft)
17.01.2015 11:42 3,3 C 2,2 C 97 % 1015,1 hPa 0,0 l/m 2 min 0 min 258 W/m 12,6 km/h (3 Bft)
17.01.2015 11:44 3,3 C 2,2 C 97 % 1015,1 hPa 0,0 l/m 2 min 0 min 261 W/m 12,6 km/h (3 Bft)
17.01.2015 11:46 3,4 C 2,2 C 97 % 1015,1 hPa 0,0 l/m 2 min 0 min 259 W/m 14,6 km/h (3 Bft)
17.01.2015 11:48 3,4 C 2,2 C 97 % 1015,1 hPa 0,0 l/m 2 min 0 min 262 W/m 12,6 km/h (3 Bft)
17.01.2015 11:50 3,5 C 2,8 C 97 % 1015,1 hPa 0,0 l/m 2 min 0 min 267 W/m 10,5 km/h (2 Bft)
17.01.2015 11:52 3,6 C 2,8 C 97 % 1015,1 hPa 0,0 l/m 2 min 0 min 269 W/m 12,6 km/h (3 Bft)
17.01.2015 11:54 3,6 C 2,8 C 97 % 1015,2 hPa 0,0 l/m 2 min 0 min 270 W/m 12,6 km/h (3 Bft)
17.01.2015 11:56 3,7 C 2,8 C 97 % 1015,2 hPa 0,0 l/m 2 min 0 min 269 W/m 12,6 km/h (3 Bft)
17.01.2015 11:58 3,7 C 2,8 C 97 % 1015,2 hPa 0,0 l/m 2 min 0 min 273 W/m 12,6 km/h (3 Bft)
17.01.2015 12:00 3,8 C 2,8 C 97 % 1015,2 hPa 0,0 l/m 2 min 0 min 274 W/m 8,4 km/h (2 Bft)
17.01.2015 12:02 3,8 C 2,8 C 97 % 1015,2 hPa 0,0 l/m 2 min 0 min 278 W/m 10,5 km/h (2 Bft)
17.01.2015 12:06 3,9 C 2,8 C 97 % 1015,2 hPa 0,0 l/m 2 min 0 min 276 W/m 10,5 km/h (2 Bft)
17.01.2015 12:08 4,0 C 2,8 C 97 % 1015,2 hPa 0,0 l/m 2 min 0 min 276 W/m 12,6 km/h (3 Bft)
17.01.2015 12:10 4,1 C 2,8 C 97 % 1015,2 hPa 0,0 l/m 2 min 0 min 273 W/m 10,5 km/h (2 Bft)
17.01.2015 12:12 4,1 C 2,8 C 97 % 1015,2 hPa 0,0 l/m 2 min 0 min 278 W/m 12,6 km/h (3 Bft)
17.01.2015 12:14 4,2 C 2,8 C 96 % 1015,3 hPa 0,0 l/m 2 min 0 min 278 W/m 14,6 km/h (3 Bft)
17.01.2015 12:16 4,2 C 3,3 C 96 % 1015,3 hPa 0,0 l/m 2 min 0 min 279 W/m 14,6 km/h (3 Bft)
17.01.2015 12:18 4,2 C 3,3 C 96 % 1015,3 hPa 0,0 l/m 2 min 0 min 278 W/m 12,6 km/h (3 Bft)
17.01.2015 12:20 4,3 C 3,3 C 96 % 1015,2 hPa 0,0 l/m 2 min 0 min 278 W/m 12,6 km/h (3 Bft)
17.01.2015 12:22 4,4 C 3,3 C 95 % 1015,2 hPa 0,0 l/m 2 min 0 min 280 W/m 14,6 km/h (3 Bft)
17.01.2015 12:24 4,4 C 3,3 C 95 % 1015,2 hPa 0,0 l/m 2 min 0 min 280 W/m 16,7 km/h (3 Bft)
17.01.2015 12:26 4,5 C 3,3 C 95 % 1015,3 hPa 0,0 l/m 2 min 0 min 280 W/m 16,7 km/h (3 Bft)
17.01.2015 12:28 4,5 C 3,3 C 94 % 1015,4 hPa 0,0 l/m 2 min 0 min 278 W/m 14,6 km/h (3 Bft)
17.01.2015 12:30 4,6 C 3,3 C 94 % 1015,4 hPa 0,0 l/m 2 min 0 min 277 W/m 12,6 km/h (3 Bft)
17.01.2015 12:32 4,7 C 3,3 C 93 % 1015,4 hPa 0,0 l/m 2 min 0 min 280 W/m 12,6 km/h (3 Bft)
17.01.2015 12:34 4,7 C 3,3 C 93 % 1015,4 hPa 0,0 l/m 2 min 0 min 278 W/m 14,6 km/h (3 Bft)
17.01.2015 12:36 4,8 C 3,3 C 92 % 1015,4 hPa 0,0 l/m 2 min 0 min 276 W/m 16,7 km/h (3 Bft)
17.01.2015 12:38 4,8 C 3,3 C 91 % 1015,4 hPa 0,0 l/m 2 min 0 min 283 W/m 16,7 km/h (3 Bft)
17.01.2015 12:40 4,9 C 3,3 C 90 % 1015,4 hPa 0,0 l/m 2 min 0 min 280 W/m 12,6 km/h (3 Bft)
17.01.2015 12:42 4,9 C 3,3 C 89 % 1015,4 hPa 0,0 l/m 2 min 0 min 280 W/m 16,7 km/h (3 Bft)
17.01.2015 12:44 5,0 C 3,3 C 89 % 1015,4 hPa 0,0 l/m 2 min 0 min 276 W/m 14,6 km/h (3 Bft)
17.01.2015 12:46 5,1 C 3,3 C 88 % 1015,5 hPa 0,0 l/m 2 min 0 min 281 W/m 14,6 km/h (3 Bft)
17.01.2015 12:48 5,1 C 3,3 C 88 % 1015,5 hPa 0,0 l/m 2 min 0 min 285 W/m 16,7 km/h (3 Bft)
17.01.2015 12:50 5,2 C 3,3 C 87 % 1015,5 hPa 0,0 l/m 2 min 0 min 278 W/m 18,8 km/h (3 Bft)
17.01.2015 12:52 5,2 C 3,9 C 86 % 1015,5 hPa 0,0 l/m 2 min 0 min 278 W/m 14,6 km/h (3 Bft)
17.01.2015 12:54 5,3 C 3,9 C 86 % 1015,5 hPa 0,0 l/m 2 min 0 min 278 W/m 14,6 km/h (3 Bft)
17.01.2015 12:56 5,3 C 3,9 C 85 % 1015,5 hPa 0,0 l/m 2 min 0 min 279 W/m 12,6 km/h (3 Bft)
17.01.2015 12:58 5,4 C 3,9 C 85 % 1015,6 hPa 0,0 l/m 2 min 0 min 281 W/m 14,6 km/h (3 Bft)
17.01.2015 13:00 5,4 C 3,9 C 85 % 1015,5 hPa 0,0 l/m 2 min 0 min 279 W/m 10,5 km/h (2 Bft)
17.01.2015 13:02 5,5 C 3,9 C 84 % 1015,5 hPa 0,0 l/m 2 min 0 min 280 W/m 8,4 km/h (2 Bft)
17.01.2015 13:04 5,6 C 3,9 C 84 % 1015,5 hPa 0,0 l/m 2 min 0 min 276 W/m 12,6 km/h (3 Bft)
17.01.2015 13:06 5,6 C 3,9 C 83 % 1015,5 hPa 0,0 l/m 2 min 0 min 280 W/m 16,7 km/h (3 Bft)
17.01.2015 13:08 5,7 C 3,9 C 83 % 1015,5 hPa 0,0 l/m 2 min 0 min 288 W/m 12,6 km/h (3 Bft)
17.01.2015 13:10 5,7 C 3,9 C 83 % 1015,5 hPa 0,0 l/m 2 min 0 min 285 W/m 12,6 km/h (3 Bft)
17.01.2015 13:12 5,8 C 4,4 C 82 % 1015,5 hPa 0,0 l/m 2 min 0 min 275 W/m 12,6 km/h (3 Bft)
17.01.2015 13:14 5,9 C 4,4 C 82 % 1015,6 hPa 0,0 l/m 2 min 0 min 294 W/m 12,6 km/h (3 Bft)
17.01.2015 13:16 5,9 C 4,4 C 82 % 1015,6 hPa 0,0 l/m 2 min 0 min 299 W/m 12,6 km/h (3 Bft)
17.01.2015 13:18 6,0 C 4,4 C 81 % 1015,6 hPa 0,0 l/m 2 min 0 min 287 W/m 18,8 km/h (3 Bft)
17.01.2015 13:20 6,0 C 4,4 C 80 % 1015,6 hPa 0,0 l/m 2 min 0 min 262 W/m 12,6 km/h (3 Bft)
17.01.2015 13:22 6,1 C 4,4 C 80 % 1015,6 hPa 0,0 l/m 2 min 0 min 225 W/m 16,7 km/h (3 Bft)
17.01.2015 13:24 6,1 C 4,4 C 79 % 1015,6 hPa 0,0 l/m 2 min 0 min 278 W/m 18,8 km/h (3 Bft)
17.01.2015 13:26 6,1 C 4,4 C 79 % 1015,6 hPa 0,0 l/m 2 min 0 min 177 W/m 12,6 km/h (3 Bft)
17.01.2015 13:28 6,1 C 4,4 C 78 % 1015,5 hPa 0,0 l/m 2 min 0 min 198 W/m 14,6 km/h (3 Bft)
17.01.2015 13:30 6,1 C 4,4 C 77 % 1015,5 hPa 0,0 l/m 2 min 0 min 310 W/m 14,6 km/h (3 Bft)
17.01.2015 13:32 6,1 C 4,4 C 77 % 1015,5 hPa 0,0 l/m 2 min 0 min 217 W/m 12,6 km/h (3 Bft)
17.01.2015 13:34 6,1 C 4,4 C 77 % 1015,5 hPa 0,0 l/m 2 min 0 min 263 W/m 18,8 km/h (3 Bft)
17.01.2015 13:36 6,1 C 4,4 C 76 % 1015,5 hPa 0,0 l/m 2 min 0 min 284 W/m 16,7 km/h (3 Bft)
17.01.2015 13:38 6,1 C 4,4 C 76 % 1015,5 hPa 0,0 l/m 2 min 0 min 264 W/m 14,6 km/h (3 Bft)
17.01.2015 13:40 6,1 C 4,4 C 76 % 1015,5 hPa 0,0 l/m 2 min 0 min 259 W/m 12,6 km/h (3 Bft)
17.01.2015 13:42 6,1 C 4,4 C 76 % 1015,4 hPa 0,0 l/m 2 min 0 min 251 W/m 16,7 km/h (3 Bft)
17.01.2015 13:44 6,1 C 4,4 C 76 % 1015,4 hPa 0,0 l/m 2 min 0 min 250 W/m 16,7 km/h (3 Bft)
17.01.2015 13:46 6,1 C 4,4 C 76 % 1015,3 hPa 0,0 l/m 2 min 0 min 249 W/m 14,6 km/h (3 Bft)
17.01.2015 13:48 6,1 C 4,4 C 76 % 1015,3 hPa 0,0 l/m 2 min 0 min 250 W/m 10,5 km/h (2 Bft)
17.01.2015 13:50 6,1 C 4,4 C 75 % 1015,3 hPa 0,0 l/m 2 min 0 min 245 W/m 18,8 km/h (3 Bft)
17.01.2015 13:52 6,1 C 4,4 C 75 % 1015,3 hPa 0,0 l/m 2 min 0 min 243 W/m 12,6 km/h (3 Bft)
17.01.2015 13:54 6,2 C 4,4 C 75 % 1015,3 hPa 0,0 l/m 2 min 0 min 242 W/m 12,6 km/h (3 Bft)
17.01.2015 13:56 6,2 C 4,4 C 75 % 1015,3 hPa 0,0 l/m 2 min 0 min 239 W/m 12,6 km/h (3 Bft)
17.01.2015 13:58 6,2 C 4,4 C 75 % 1015,3 hPa 0,0 l/m 2 min 0 min 235 W/m 14,6 km/h (3 Bft)
17.01.2015 14:00 6,3 C 4,4 C 74 % 1015,4 hPa 0,0 l/m 2 min 0 min 227 W/m 12,6 km/h (3 Bft)
17.01.2015 14:02 6,3 C 4,4 C 74 % 1015,3 hPa 0,0 l/m 2 min 0 min 223 W/m 12,6 km/h (3 Bft)
17.01.2015 14:04 6,3 C 4,4 C 73 % 1015,3 hPa 0,0 l/m 2 min 0 min 220 W/m 14,6 km/h (3 Bft)
17.01.2015 14:06 6,3 C 4,4 C 73 % 1015,3 hPa 0,0 l/m 2 min 0 min 218 W/m 12,6 km/h (3 Bft)
17.01.2015 14:08 6,3 C 4,4 C 73 % 1015,3 hPa 0,0 l/m 2 min 0 min 214 W/m 12,6 km/h (3 Bft)
17.01.2015 14:10 6,3 C 4,4 C 73 % 1015,2 hPa 0,0 l/m 2 min 0 min 211 W/m 14,6 km/h (3 Bft)
17.01.2015 14:12 6,3 C 4,4 C 73 % 1015,2 hPa 0,0 l/m 2 min 0 min 210 W/m 14,6 km/h (3 Bft)
17.01.2015 14:14 6,3 C 4,4 C 73 % 1015,2 hPa 0,0 l/m 2 min 0 min 211 W/m 12,6 km/h (3 Bft)
17.01.2015 14:16 6,3 C 4,4 C 73 % 1015,2 hPa 0,0 l/m 2 min 0 min 209 W/m 14,6 km/h (3 Bft)
17.01.2015 14:18 6,3 C 4,4 C 73 % 1015,2 hPa 0,0 l/m 2 min 0 min 209 W/m 18,8 km/h (3 Bft)
17.01.2015 14:20 6,3 C 4,4 C 72 % 1015,2 hPa 0,0 l/m 2 min 0 min 208 W/m 12,6 km/h (3 Bft)
17.01.2015 14:22 6,3 C 4,4 C 72 % 1015,2 hPa 0,0 l/m 2 min 0 min 205 W/m 14,6 km/h (3 Bft)
17.01.2015 14:24 6,3 C 4,4 C 72 % 1015,2 hPa 0,0 l/m 2 min 0 min 202 W/m 18,8 km/h (3 Bft)
17.01.2015 14:26 6,3 C 4,4 C 72 % 1015,3 hPa 0,0 l/m 2 min 0 min 200 W/m 18,8 km/h (3 Bft)
17.01.2015 14:28 6,3 C 4,4 C 71 % 1015,2 hPa 0,0 l/m 2 min 0 min 192 W/m 18,8 km/h (3 Bft)
17.01.2015 14:30 6,2 C 4,4 C 70 % 1015,2 hPa 0,0 l/m 2 min 0 min 188 W/m 14,6 km/h (3 Bft)
17.01.2015 14:32 6,2 C 4,4 C 69 % 1015,2 hPa 0,0 l/m 2 min 0 min 183 W/m 12,6 km/h (3 Bft)
17.01.2015 14:34 6,2 C 4,4 C 69 % 1015,2 hPa 0,0 l/m 2 min 0 min 175 W/m 12,6 km/h (3 Bft)
17.01.2015 14:36 6,2 C 4,4 C 69 % 1015,2 hPa 0,0 l/m 2 min 0 min 175 W/m 12,6 km/h (3 Bft)
17.01.2015 14:38 6,2 C 4,4 C 70 % 1015,2 hPa 0,0 l/m 2 min 0 min 171 W/m 12,6 km/h (3 Bft)
17.01.2015 14:40 6,2 C 4,4 C 70 % 1015,2 hPa 0,0 l/m 2 min 0 min 167 W/m 14,6 km/h (3 Bft)
17.01.2015 14:42 6,2 C 4,4 C 69 % 1015,2 hPa 0,0 l/m 2 min 0 min 166 W/m 14,6 km/h (3 Bft)
17.01.2015 14:44 6,2 C 4,4 C 69 % 1015,2 hPa 0,0 l/m 2 min 0 min 163 W/m 12,6 km/h (3 Bft)
17.01.2015 14:46 6,2 C 4,4 C 69 % 1015,2 hPa 0,0 l/m 2 min 0 min 157 W/m 14,6 km/h (3 Bft)
17.01.2015 14:48 6,2 C 4,4 C 69 % 1015,2 hPa 0,0 l/m 2 min 0 min 154 W/m 10,5 km/h (2 Bft)
17.01.2015 14:50 6,2 C 3,9 C 69 % 1015,2 hPa 0,0 l/m 2 min 0 min 151 W/m 12,6 km/h (3 Bft)
17.01.2015 14:52 6,2 C 3,9 C 69 % 1015,2 hPa 0,0 l/m 2 min 0 min 150 W/m 14,6 km/h (3 Bft)
17.01.2015 14:54 6,2 C 3,9 C 69 % 1015,2 hPa 0,0 l/m 2 min 0 min 148 W/m 14,6 km/h (3 Bft)
17.01.2015 14:56 6,2 C 3,9 C 69 % 1015,2 hPa 0,0 l/m 2 min 0 min 144 W/m 12,6 km/h (3 Bft)
17.01.2015 14:58 6,2 C 3,9 C 69 % 1015,2 hPa 0,0 l/m 2 min 0 min 140 W/m 16,7 km/h (3 Bft)
17.01.2015 15:00 6,1 C 3,9 C 68 % 1015,2 hPa 0,0 l/m 2 min 0 min 137 W/m 14,6 km/h (3 Bft)
17.01.2015 15:02 6,1 C 3,9 C 68 % 1015,2 hPa 0,0 l/m 2 min 0 min 133 W/m 14,6 km/h (3 Bft)
17.01.2015 15:04 6,0 C 3,9 C 68 % 1015,2 hPa 0,0 l/m 2 min 0 min 130 W/m 12,6 km/h (3 Bft)
17.01.2015 15:06 6,0 C 3,9 C 68 % 1015,2 hPa 0,0 l/m 2 min 0 min 125 W/m 16,7 km/h (3 Bft)
17.01.2015 15:08 5,9 C 3,9 C 68 % 1015,2 hPa 0,0 l/m 2 min 0 min 119 W/m 23,0 km/h (4 Bft)
17.01.2015 15:10 5,9 C 3,9 C 68 % 1015,2 hPa 0,0 l/m 2 min 0 min 114 W/m 20,9 km/h (4 Bft)
17.01.2015 15:12 5,8 C 3,9 C 69 % 1015,2 hPa 0,0 l/m 2 min 0 min 113 W/m 25,1 km/h (4 Bft)
17.01.2015 15:14 5,8 C 3,9 C 69 % 1015,2 hPa 0,0 l/m 2 min 0 min 105 W/m 14,6 km/h (3 Bft)
17.01.2015 15:16 5,7 C 3,3 C 69 % 1015,2 hPa 0,0 l/m 0 min 0 min 60 W/m 14,6 km/h (3 Bft)
17.01.2015 15:18 5,7 C 3,3 C 70 % 1015,2 hPa 0,0 l/m 2 min 0 min 97 W/m 16,7 km/h (3 Bft)
17.01.2015 15:20 5,6 C 3,3 C 70 % 1015,2 hPa 0,0 l/m 2 min 0 min 100 W/m 18,8 km/h (3 Bft)
17.01.2015 15:22 5,6 C 3,3 C 70 % 1015,2 hPa 0,0 l/m 2 min 0 min 99 W/m 14,6 km/h (3 Bft)
17.01.2015 15:24 5,5 C 3,3 C 70 % 1015,2 hPa 0,0 l/m 0 min 0 min 85 W/m 20,9 km/h (4 Bft)
17.01.2015 15:26 5,4 C 3,3 C 71 % 1015,2 hPa 0,0 l/m 0 min 0 min 48 W/m 16,7 km/h (3 Bft)
17.01.2015 15:28 5,4 C 3,3 C 71 % 1015,3 hPa 0,0 l/m 0 min 0 min 68 W/m 20,9 km/h (4 Bft)
17.01.2015 15:30 5,3 C 3,3 C 71 % 1015,3 hPa 0,0 l/m 0 min 0 min 69 W/m 18,8 km/h (3 Bft)
17.01.2015 15:32 5,3 C 3,3 C 71 % 1015,3 hPa 0,0 l/m 0 min 0 min 68 W/m 14,6 km/h (3 Bft)
17.01.2015 15:34 5,2 C 3,3 C 71 % 1015,3 hPa 0,0 l/m 0 min 0 min 75 W/m 16,7 km/h (3 Bft)
17.01.2015 15:36 5,2 C 3,3 C 71 % 1015,2 hPa 0,0 l/m 0 min 0 min 72 W/m 14,6 km/h (3 Bft)
17.01.2015 15:38 5,2 C 3,3 C 72 % 1015,2 hPa 0,0 l/m 0 min 0 min 70 W/m 8,4 km/h (2 Bft)
17.01.2015 15:40 5,1 C 3,3 C 72 % 1015,2 hPa 0,0 l/m 0 min 0 min 66 W/m 14,6 km/h (3 Bft)
17.01.2015 15:42 5,1 C 3,3 C 72 % 1015,2 hPa 0,0 l/m 0 min 0 min 62 W/m 12,6 km/h (3 Bft)
17.01.2015 15:44 5,1 C 2,8 C 73 % 1015,1 hPa 0,0 l/m 0 min 0 min 62 W/m 12,6 km/h (3 Bft)
17.01.2015 15:46 5,1 C 3,3 C 73 % 1015,1 hPa 0,0 l/m 0 min 0 min 62 W/m 14,6 km/h (3 Bft)
17.01.2015 15:48 5,1 C 3,3 C 74 % 1015,1 hPa 0,0 l/m 0 min 0 min 61 W/m 14,6 km/h (3 Bft)
17.01.2015 15:50 5,0 C 3,3 C 74 % 1015,1 hPa 0,0 l/m 0 min 0 min 58 W/m 14,6 km/h (3 Bft)
17.01.2015 15:52 4,9 C 3,3 C 74 % 1015,1 hPa 0,0 l/m 0 min 0 min 54 W/m 12,6 km/h (3 Bft)
17.01.2015 15:54 4,9 C 3,3 C 74 % 1015,1 hPa 0,0 l/m 0 min 0 min 55 W/m 14,6 km/h (3 Bft)
17.01.2015 15:56 4,9 C 3,3 C 75 % 1015,1 hPa 0,0 l/m 0 min 0 min 50 W/m 25,1 km/h (4 Bft)
17.01.2015 15:58 4,9 C 3,3 C 75 % 1015,1 hPa 0,0 l/m 0 min 0 min 44 W/m 16,7 km/h (3 Bft)
17.01.2015 16:00 4,8 C 3,3 C 75 % 1015,1 hPa 0,0 l/m 0 min 0 min 41 W/m 14,6 km/h (3 Bft)
17.01.2015 16:02 4,8 C 3,3 C 75 % 1015,1 hPa 0,0 l/m 0 min 0 min 38 W/m 14,6 km/h (3 Bft)
17.01.2015 16:04 4,8 C 2,8 C 75 % 1015,2 hPa 0,0 l/m 0 min 0 min 36 W/m 14,6 km/h (3 Bft)
17.01.2015 16:06 4,8 C 2,8 C 75 % 1015,2 hPa 0,0 l/m 0 min 0 min 34 W/m 16,7 km/h (3 Bft)
17.01.2015 16:08 4,7 C 2,8 C 75 % 1015,2 hPa 0,0 l/m 0 min 0 min 33 W/m 18,8 km/h (3 Bft)
17.01.2015 16:10 4,7 C 2,8 C 75 % 1015,2 hPa 0,0 l/m 0 min 0 min 32 W/m 14,6 km/h (3 Bft)
17.01.2015 16:12 4,7 C 2,8 C 75 % 1015,1 hPa 0,0 l/m 0 min 0 min 31 W/m 14,6 km/h (3 Bft)
17.01.2015 16:14 4,6 C 2,8 C 75 % 1015,2 hPa 0,0 l/m 0 min 0 min 30 W/m 20,9 km/h (4 Bft)
17.01.2015 16:16 4,6 C 2,8 C 75 % 1015,1 hPa 0,0 l/m 0 min 0 min 28 W/m 12,6 km/h (3 Bft)
17.01.2015 16:18 4,6 C 2,8 C 75 % 1015,1 hPa 0,0 l/m 0 min 0 min 28 W/m 14,6 km/h (3 Bft)
17.01.2015 16:20 4,6 C 2,8 C 75 % 1015,1 hPa 0,0 l/m 0 min 0 min 26 W/m 12,6 km/h (3 Bft)
17.01.2015 16:22 4,5 C 2,2 C 75 % 1015,2 hPa 0,0 l/m 0 min 0 min 26 W/m 12,6 km/h (3 Bft)
17.01.2015 16:24 4,5 C 2,2 C 75 % 1015,1 hPa 0,0 l/m 0 min 0 min 25 W/m 10,5 km/h (2 Bft)
17.01.2015 16:26 4,4 C 2,2 C 75 % 1015,1 hPa 0,0 l/m 0 min 0 min 25 W/m 8,4 km/h (2 Bft)
17.01.2015 16:28 4,4 C 2,2 C 75 % 1015,2 hPa 0,0 l/m 0 min 0 min 25 W/m 8,4 km/h (2 Bft)
17.01.2015 16:30 4,4 C 2,2 C 76 % 1015,2 hPa 0,0 l/m 0 min 0 min 23 W/m 10,5 km/h (2 Bft)
17.01.2015 16:32 4,4 C 2,2 C 76 % 1015,2 hPa 0,0 l/m 2 min 0 min 22 W/m 8,4 km/h (2 Bft)
17.01.2015 16:34 4,3 C 2,2 C 76 % 1015,2 hPa 0,0 l/m 2 min 0 min 21 W/m 12,6 km/h (3 Bft)
17.01.2015 16:36 4,3 C 2,2 C 76 % 1015,2 hPa 0,0 l/m 2 min 0 min 20 W/m 16,7 km/h (3 Bft)
17.01.2015 16:38 4,3 C 2,2 C 76 % 1015,2 hPa 0,0 l/m 2 min 0 min 19 W/m 16,7 km/h (3 Bft)
17.01.2015 16:40 4,2 C 2,2 C 77 % 1015,2 hPa 0,0 l/m 2 min 0 min 18 W/m 18,8 km/h (3 Bft)
17.01.2015 16:42 4,2 C 2,2 C 77 % 1015,2 hPa 0,0 l/m 2 min 0 min 17 W/m 25,1 km/h (4 Bft)
17.01.2015 16:44 4,2 C 2,2 C 77 % 1015,2 hPa 0,0 l/m 2 min 0 min 16 W/m 14,6 km/h (3 Bft)
17.01.2015 16:46 4,2 C 2,2 C 78 % 1015,2 hPa 0,0 l/m 0 min 0 min 14 W/m 18,8 km/h (3 Bft)
17.01.2015 16:48 4,1 C 2,2 C 78 % 1015,2 hPa 0,0 l/m 0 min 0 min 12 W/m 14,6 km/h (3 Bft)
17.01.2015 16:50 4,1 C 2,2 C 78 % 1015,3 hPa 0,0 l/m 0 min 0 min 11 W/m 20,9 km/h (4 Bft)
17.01.2015 16:52 4,0 C 2,2 C 78 % 1015,3 hPa 0,0 l/m 0 min 0 min 11 W/m 18,8 km/h (3 Bft)
17.01.2015 16:54 4,0 C 2,2 C 78 % 1015,3 hPa 0,0 l/m 0 min 0 min 9 W/m 18,8 km/h (3 Bft)
17.01.2015 16:56 3,9 C 2,2 C 78 % 1015,2 hPa 0,0 l/m 0 min 0 min 9 W/m 14,6 km/h (3 Bft)
17.01.2015 16:58 3,9 C 2,2 C 78 % 1015,2 hPa 0,0 l/m 0 min 0 min 7 W/m 23,0 km/h (4 Bft)
17.01.2015 17:00 3,8 C 2,2 C 78 % 1015,2 hPa 0,0 l/m 0 min 0 min 7 W/m 14,6 km/h (3 Bft)
17.01.2015 17:02 3,8 C 1,7 C 78 % 1015,2 hPa 0,0 l/m 0 min 0 min 5 W/m 12,6 km/h (3 Bft)
17.01.2015 17:04 3,8 C 1,7 C 78 % 1015,2 hPa 0,0 l/m 0 min 0 min 5 W/m 12,6 km/h (3 Bft)
17.01.2015 17:06 3,7 C 1,7 C 78 % 1015,2 hPa 0,0 l/m 0 min 0 min 5 W/m 14,6 km/h (3 Bft)
17.01.2015 17:08 3,7 C 1,7 C 78 % 1015,3 hPa 0,0 l/m 0 min 0 min 0 W/m 12,6 km/h (3 Bft)
17.01.2015 17:10 3,7 C 1,7 C 78 % 1015,2 hPa 0,0 l/m 0 min 0 min 0 W/m 18,8 km/h (3 Bft)
17.01.2015 17:12 3,6 C 1,7 C 78 % 1015,3 hPa 0,0 l/m 0 min 0 min 0 W/m 14,6 km/h (3 Bft)
17.01.2015 17:14 3,6 C 1,7 C 78 % 1015,3 hPa 0,0 l/m 0 min 0 min 0 W/m 14,6 km/h (3 Bft)
17.01.2015 17:16 3,6 C 1,7 C 79 % 1015,3 hPa 0,0 l/m 0 min 0 min 0 W/m 10,5 km/h (2 Bft)
17.01.2015 17:18 3,5 C 1,7 C 79 % 1015,4 hPa 0,0 l/m 0 min 0 min 0 W/m 12,6 km/h (3 Bft)
17.01.2015 17:20 3,4 C 1,1 C 79 % 1015,4 hPa 0,0 l/m 0 min 0 min 0 W/m 14,6 km/h (3 Bft)
17.01.2015 17:22 3,4 C 1,1 C 79 % 1015,3 hPa 0,0 l/m 0 min 0 min 0 W/m 10,5 km/h (2 Bft)
17.01.2015 17:24 3,4 C 1,1 C 79 % 1015,3 hPa 0,0 l/m 0 min 0 min 0 W/m 10,5 km/h (2 Bft)
17.01.2015 17:26 3,3 C 1,1 C 79 % 1015,3 hPa 0,0 l/m 0 min 0 min 0 W/m 14,6 km/h (3 Bft)
17.01.2015 17:28 3,3 C 1,1 C 80 % 1015,3 hPa 0,0 l/m 0 min 0 min 0 W/m 8,4 km/h (2 Bft)
17.01.2015 17:30 3,3 C 1,1 C 80 % 1015,4 hPa 0,0 l/m 0 min 0 min 0 W/m 10,5 km/h (2 Bft)
17.01.2015 17:32 3,2 C 1,1 C 80 % 1015,3 hPa 0,0 l/m 0 min 0 min 0 W/m 12,6 km/h (3 Bft)
17.01.2015 17:34 3,2 C 1,1 C 80 % 1015,3 hPa 0,0 l/m 0 min 0 min 0 W/m 8,4 km/h (2 Bft)
17.01.2015 17:36 3,2 C 1,1 C 80 % 1015,4 hPa 0,0 l/m 0 min 0 min 0 W/m 14,6 km/h (3 Bft)
17.01.2015 17:38 3,1 C 1,1 C 80 % 1015,3 hPa 0,0 l/m 0 min 0 min 0 W/m 12,6 km/h (3 Bft)
17.01.2015 17:40 3,1 C 1,1 C 81 % 1015,2 hPa 0,0 l/m 0 min 0 min 0 W/m 12,6 km/h (3 Bft)
17.01.2015 17:42 3,1 C 1,1 C 81 % 1015,3 hPa 0,0 l/m 0 min 0 min 0 W/m 10,5 km/h (2 Bft)
17.01.2015 17:44 3,0 C 1,1 C 81 % 1015,3 hPa 0,0 l/m 0 min 0 min 0 W/m 14,6 km/h (3 Bft)
17.01.2015 17:46 2,9 C 1,1 C 81 % 1015,3 hPa 0,0 l/m 0 min 0 min 0 W/m 12,6 km/h (3 Bft)
17.01.2015 17:48 2,9 C 1,1 C 81 % 1015,2 hPa 0,0 l/m 0 min 0 min 0 W/m 10,5 km/h (2 Bft)
17.01.2015 17:50 2,9 C 1,1 C 82 % 1015,3 hPa 0,0 l/m 0 min 0 min 0 W/m 12,6 km/h (3 Bft)
17.01.2015 17:52 2,9 C 1,1 C 82 % 1015,3 hPa 0,0 l/m 0 min 0 min 0 W/m 10,5 km/h (2 Bft)
17.01.2015 17:54 2,8 C 1,1 C 82 % 1015,3 hPa 0,0 l/m 0 min 0 min 0 W/m 14,6 km/h (3 Bft)
17.01.2015 17:56 2,8 C 1,1 C 82 % 1015,2 hPa 0,0 l/m 0 min 0 min 0 W/m 8,4 km/h (2 Bft)
17.01.2015 17:58 2,8 C 1,1 C 82 % 1015,2 hPa 0,0 l/m 0 min 0 min 0 W/m 18,8 km/h (3 Bft)
17.01.2015 18:00 2,7 C 1,1 C 82 % 1015,2 hPa 0,0 l/m 0 min 0 min 0 W/m 16,7 km/h (3 Bft)
17.01.2015 18:02 2,7 C 1,1 C 83 % 1015,2 hPa 0,0 l/m 0 min 0 min 0 W/m 12,6 km/h (3 Bft)
17.01.2015 18:06 2,7 C 1,1 C 83 % 1015,2 hPa 0,0 l/m 0 min 0 min 0 W/m 12,6 km/h (3 Bft)
17.01.2015 18:08 2,6 C 1,1 C 83 % 1015,2 hPa 0,0 l/m 0 min 0 min 0 W/m 14,6 km/h (3 Bft)
17.01.2015 18:10 2,6 C 1,1 C 83 % 1015,2 hPa 0,0 l/m 0 min 0 min 0 W/m 10,5 km/h (2 Bft)
17.01.2015 18:12 2,6 C 0,6 C 83 % 1015,2 hPa 0,0 l/m 0 min 0 min 0 W/m 8,4 km/h (2 Bft)
17.01.2015 18:14 2,6 C 0,6 C 83 % 1015,2 hPa 0,0 l/m 0 min 0 min 0 W/m 10,5 km/h (2 Bft)
17.01.2015 18:16 2,5 C 0,6 C 83 % 1015,2 hPa 0,0 l/m 0 min 0 min 0 W/m 12,6 km/h (3 Bft)
17.01.2015 18:18 2,4 C 0,6 C 83 % 1015,3 hPa 0,0 l/m 0 min 0 min 0 W/m 8,4 km/h (2 Bft)
17.01.2015 18:20 2,4 C 0,6 C 84 % 1015,3 hPa 0,0 l/m 0 min 0 min 0 W/m 12,6 km/h (3 Bft)
17.01.2015 18:22 2,4 C 0,6 C 84 % 1015,3 hPa 0,0 l/m 0 min 0 min 0 W/m 12,6 km/h (3 Bft)
17.01.2015 18:24 2,4 C 0,6 C 84 % 1015,3 hPa 0,0 l/m 0 min 0 min 0 W/m 12,6 km/h (3 Bft)
17.01.2015 18:26 2,4 C 0,6 C 84 % 1015,3 hPa 0,0 l/m 0 min 0 min 0 W/m 10,5 km/h (2 Bft)
17.01.2015 18:28 2,3 C 0,6 C 84 % 1015,3 hPa 0,0 l/m 0 min 0 min 0 W/m 14,6 km/h (3 Bft)
17.01.2015 18:30 2,3 C 0,6 C 84 % 1015,4 hPa 0,0 l/m 0 min 0 min 0 W/m 10,5 km/h (2 Bft)
17.01.2015 18:32 2,3 C 0,6 C 84 % 1015,4 hPa 0,0 l/m 0 min 0 min 0 W/m 12,6 km/h (3 Bft)
17.01.2015 18:34 2,3 C 0,6 C 84 % 1015,4 hPa 0,0 l/m 0 min 0 min 0 W/m 12,6 km/h (3 Bft)
17.01.2015 18:36 2,2 C 0,6 C 85 % 1015,3 hPa 0,0 l/m 0 min 0 min 0 W/m 12,6 km/h (3 Bft)
17.01.2015 18:38 2,2 C 0,6 C 85 % 1015,3 hPa 0,0 l/m 0 min 0 min 0 W/m 10,5 km/h (2 Bft)
17.01.2015 18:40 2,2 C 0,6 C 85 % 1015,3 hPa 0,0 l/m 0 min 0 min 0 W/m 10,5 km/h (2 Bft)
17.01.2015 18:42 2,2 C 0,6 C 85 % 1015,3 hPa 0,0 l/m 0 min 0 min 0 W/m 8,4 km/h (2 Bft)
17.01.2015 18:44 2,2 C 0,0 C 85 % 1015,2 hPa 0,0 l/m 0 min 0 min 0 W/m 12,6 km/h (3 Bft)
17.01.2015 18:46 2,1 C 0,0 C 85 % 1015,2 hPa 0,0 l/m 0 min 0 min 0 W/m 10,5 km/h (2 Bft)
17.01.2015 18:48 2,1 C 0,0 C 85 % 1015,2 hPa 0,0 l/m 0 min 0 min 0 W/m 10,5 km/h (2 Bft)
17.01.2015 18:50 2,1 C 0,0 C 85 % 1015,3 hPa 0,0 l/m 0 min 0 min 0 W/m 14,6 km/h (3 Bft)
17.01.2015 18:52 2,1 C 0,0 C 85 % 1015,3 hPa 0,0 l/m 0 min 0 min 0 W/m 8,4 km/h (2 Bft)
17.01.2015 18:54 2,1 C 0,0 C 85 % 1015,3 hPa 0,0 l/m 0 min 0 min 0 W/m 10,5 km/h (2 Bft)
17.01.2015 18:56 2,0 C -0,6 C 85 % 1015,2 hPa 0,0 l/m 0 min 0 min 0 W/m 10,5 km/h (2 Bft)
17.01.2015 18:58 2,0 C -0,6 C 85 % 1015,1 hPa 0,0 l/m 0 min 0 min 0 W/m 10,5 km/h (2 Bft)
17.01.2015 19:00 2,0 C -0,6 C 85 % 1015,1 hPa 0,0 l/m 0 min 0 min 0 W/m 10,5 km/h (2 Bft)
17.01.2015 19:02 1,9 C -0,6 C 85 % 1015,1 hPa 0,0 l/m 0 min 0 min 0 W/m 10,5 km/h (2 Bft)
17.01.2015 19:04 1,9 C -0,6 C 85 % 1015,2 hPa 0,0 l/m 0 min 0 min 0 W/m 8,4 km/h (2 Bft)
17.01.2015 19:06 1,9 C -0,6 C 85 % 1015,2 hPa 0,0 l/m 0 min 0 min 0 W/m 8,4 km/h (2 Bft)
17.01.2015 19:08 1,9 C -0,6 C 85 % 1015,2 hPa 0,0 l/m 0 min 0 min 0 W/m 6,3 km/h (2 Bft)
17.01.2015 19:10 1,8 C -0,6 C 85 % 1015,3 hPa 0,0 l/m 0 min 0 min 0 W/m 6,3 km/h (2 Bft)
17.01.2015 19:12 1,8 C -0,6 C 85 % 1015,3 hPa 0,0 l/m 0 min 0 min 0 W/m 6,3 km/h (2 Bft)
17.01.2015 19:14 1,8 C -0,6 C 86 % 1015,4 hPa 0,0 l/m 0 min 0 min 0 W/m 8,4 km/h (2 Bft)
17.01.2015 19:16 1,8 C -1,1 C 86 % 1015,4 hPa 0,0 l/m 0 min 0 min 0 W/m 10,5 km/h (2 Bft)
17.01.2015 19:18 1,7 C -0,6 C 86 % 1015,5 hPa 0,0 l/m 0 min 0 min 0 W/m 10,5 km/h (2 Bft)
17.01.2015 19:20 1,7 C -0,6 C 86 % 1015,5 hPa 0,0 l/m 0 min 0 min 0 W/m 10,5 km/h (2 Bft)
17.01.2015 19:22 1,7 C -0,6 C 86 % 1015,5 hPa 0,0 l/m 0 min 0 min 0 W/m 12,6 km/h (3 Bft)
17.01.2015 19:24 1,6 C -0,6 C 86 % 1015,4 hPa 0,0 l/m 0 min 0 min 0 W/m 8,4 km/h (2 Bft)
17.01.2015 19:26 1,6 C -0,6 C 86 % 1015,4 hPa 0,0 l/m 0 min 0 min 0 W/m 10,5 km/h (2 Bft)
17.01.2015 19:28 1,6 C -1,1 C 86 % 1015,4 hPa 0,0 l/m 0 min 0 min 0 W/m 8,4 km/h (2 Bft)
17.01.2015 19:30 1,5 C -1,1 C 86 % 1015,4 hPa 0,0 l/m 0 min 0 min 0 W/m 8,4 km/h (2 Bft)
17.01.2015 19:32 1,5 C -1,1 C 86 % 1015,4 hPa 0,0 l/m 0 min 0 min 0 W/m 10,5 km/h (2 Bft)
17.01.2015 19:34 1,4 C -1,1 C 86 % 1015,4 hPa 0,0 l/m 0 min 0 min 0 W/m 10,5 km/h (2 Bft)
17.01.2015 19:36 1,4 C -1,1 C 86 % 1015,5 hPa 0,0 l/m 0 min 0 min 0 W/m 10,5 km/h (2 Bft)
17.01.2015 19:38 1,4 C -1,1 C 86 % 1015,4 hPa 0,0 l/m 0 min 0 min 0 W/m 12,6 km/h (3 Bft)
17.01.2015 19:40 1,4 C -1,1 C 86 % 1015,5 hPa 0,0 l/m 0 min 0 min 0 W/m 10,5 km/h (2 Bft)
17.01.2015 19:42 1,4 C -1,1 C 86 % 1015,5 hPa 0,0 l/m 0 min 0 min 0 W/m 8,4 km/h (2 Bft)
17.01.2015 19:44 1,3 C -1,1 C 87 % 1015,4 hPa 0,0 l/m 0 min 0 min 0 W/m 8,4 km/h (2 Bft)
17.01.2015 19:46 1,3 C -1,1 C 87 % 1015,5 hPa 0,0 l/m 0 min 0 min 0 W/m 6,3 km/h (2 Bft)
17.01.2015 19:48 1,3 C -1,1 C 87 % 1015,5 hPa 0,0 l/m 0 min 0 min 0 W/m 8,4 km/h (2 Bft)
17.01.2015 19:50 1,3 C -1,1 C 87 % 1015,4 hPa 0,0 l/m 0 min 0 min 0 W/m 8,4 km/h (2 Bft)
17.01.2015 19:52 1,2 C -1,1 C 87 % 1015,5 hPa 0,0 l/m 0 min 0 min 0 W/m 10,5 km/h (2 Bft)
17.01.2015 19:54 1,2 C -1,1 C 87 % 1015,4 hPa 0,0 l/m 0 min 0 min 0 W/m 6,3 km/h (2 Bft)
17.01.2015 19:56 1,2 C -1,1 C 87 % 1015,4 hPa 0,0 l/m 0 min 0 min 0 W/m 6,3 km/h (2 Bft)
17.01.2015 19:58 1,2 C -1,1 C 87 % 1015,4 hPa 0,0 l/m 0 min 0 min 0 W/m 6,3 km/h (2 Bft)
17.01.2015 20:00 1,2 C -1,1 C 87 % 1015,4 hPa 0,0 l/m 0 min 0 min 0 W/m 6,3 km/h (2 Bft)
17.01.2015 20:02 1,1 C -1,1 C 87 % 1015,5 hPa 0,0 l/m 0 min 0 min 0 W/m 6,3 km/h (2 Bft)
17.01.2015 20:04 1,1 C -1,7 C 87 % 1015,5 hPa 0,0 l/m 0 min 0 min 0 W/m 4,2 km/h (1 Bft)
17.01.2015 20:06 1,1 C -1,7 C 88 % 1015,5 hPa 0,0 l/m 0 min 0 min 0 W/m 6,3 km/h (2 Bft)
17.01.2015 20:08 1,1 C -1,7 C 87 % 1015,6 hPa 0,0 l/m 0 min 0 min 0 W/m 6,3 km/h (2 Bft)
17.01.2015 20:10 1,1 C -1,7 C 87 % 1015,6 hPa 0,0 l/m 0 min 0 min 0 W/m 6,3 km/h (2 Bft)
17.01.2015 20:12 1,0 C -1,7 C 87 % 1015,6 hPa 0,0 l/m 0 min 0 min 0 W/m 10,5 km/h (2 Bft)
17.01.2015 20:14 0,9 C -1,7 C 87 % 1015,6 hPa 0,0 l/m 0 min 0 min 0 W/m 10,5 km/h (2 Bft)
17.01.2015 20:16 0,9 C -1,7 C 88 % 1015,6 hPa 0,0 l/m 0 min 0 min 0 W/m 10,5 km/h (2 Bft)
17.01.2015 20:18 0,9 C -1,7 C 88 % 1015,6 hPa 0,0 l/m 0 min 0 min 0 W/m 14,6 km/h (3 Bft)
17.01.2015 20:20 0,9 C -1,7 C 88 % 1015,6 hPa 0,0 l/m 0 min 0 min 0 W/m 10,5 km/h (2 Bft)
17.01.2015 20:22 0,8 C -1,7 C 88 % 1015,6 hPa 0,0 l/m 0 min 0 min 0 W/m 10,5 km/h (2 Bft)
17.01.2015 20:24 0,8 C -1,7 C 88 % 1015,6 hPa 0,0 l/m 0 min 0 min 0 W/m 12,6 km/h (3 Bft)
17.01.2015 20:26 0,8 C -1,1 C 88 % 1015,6 hPa 0,0 l/m 0 min 0 min 0 W/m 12,6 km/h (3 Bft)
17.01.2015 20:28 0,7 C -1,1 C 88 % 1015,6 hPa 0,0 l/m 0 min 0 min 0 W/m 14,6 km/h (3 Bft)
17.01.2015 20:30 0,7 C -1,1 C 88 % 1015,6 hPa 0,0 l/m 0 min 0 min 0 W/m 14,6 km/h (3 Bft)
17.01.2015 20:32 0,7 C -1,1 C 88 % 1015,7 hPa 0,0 l/m 0 min 0 min 0 W/m 12,6 km/h (3 Bft)
17.01.2015 20:34 0,7 C -1,1 C 88 % 1015,7 hPa 0,0 l/m 0 min 0 min 0 W/m 12,6 km/h (3 Bft)
17.01.2015 20:36 0,7 C -1,1 C 89 % 1015,7 hPa 0,0 l/m 0 min 0 min 0 W/m 12,6 km/h (3 Bft)
17.01.2015 20:38 0,7 C -1,1 C 88 % 1015,7 hPa 0,0 l/m 0 min 0 min 0 W/m 14,6 km/h (3 Bft)
17.01.2015 20:40 0,7 C -0,6 C 89 % 1015,7 hPa 0,0 l/m 0 min 0 min 0 W/m 16,7 km/h (3 Bft)
17.01.2015 20:42 0,7 C -0,6 C 89 % 1015,6 hPa 0,0 l/m 0 min 0 min 0 W/m 16,7 km/h (3 Bft)
17.01.2015 20:44 0,7 C 0,0 C 89 % 1015,7 hPa 0,0 l/m 0 min 0 min 0 W/m 10,5 km/h (2 Bft)
17.01.2015 20:46 0,8 C 0,0 C 89 % 1015,6 hPa 0,0 l/m 0 min 0 min 0 W/m 14,6 km/h (3 Bft)
17.01.2015 20:48 0,8 C 0,0 C 89 % 1015,6 hPa 0,0 l/m 0 min 0 min 0 W/m 16,7 km/h (3 Bft)
17.01.2015 20:50 0,8 C 0,0 C 89 % 1015,7 hPa 0,0 l/m 0 min 0 min 0 W/m 20,9 km/h (4 Bft)
17.01.2015 20:52 0,8 C 0,0 C 89 % 1015,7 hPa 0,0 l/m 0 min 0 min 0 W/m 16,7 km/h (3 Bft)
17.01.2015 20:54 0,9 C 0,0 C 90 % 1015,7 hPa 0,0 l/m 0 min 0 min 0 W/m 16,7 km/h (3 Bft)
17.01.2015 20:56 0,9 C 0,6 C 90 % 1015,7 hPa 0,0 l/m 0 min 0 min 0 W/m 23,0 km/h (4 Bft)
17.01.2015 20:58 1,0 C 0,6 C 90 % 1015,6 hPa 0,0 l/m 0 min 0 min 0 W/m 12,6 km/h (3 Bft)
17.01.2015 21:00 1,0 C 0,6 C 90 % 1015,7 hPa 0,0 l/m 0 min 0 min 0 W/m 16,7 km/h (3 Bft)
17.01.2015 21:02 1,1 C 0,6 C 90 % 1015,7 hPa 0,0 l/m 0 min 0 min 0 W/m 23,0 km/h (4 Bft)
17.01.2015 21:04 1,1 C 0,6 C 90 % 1015,7 hPa 0,0 l/m 0 min 0 min 0 W/m 16,7 km/h (3 Bft)
17.01.2015 21:06 1,2 C 0,6 C 90 % 1015,7 hPa 0,0 l/m 0 min 0 min 0 W/m 20,9 km/h (4 Bft)
17.01.2015 21:08 1,2 C 0,6 C 90 % 1015,7 hPa 0,0 l/m 0 min 0 min 0 W/m 12,6 km/h (3 Bft)
17.01.2015 21:10 1,3 C 0,6 C 90 % 1015,7 hPa 0,0 l/m 0 min 0 min 0 W/m 18,8 km/h (3 Bft)
17.01.2015 21:12 1,3 C 0,6 C 89 % 1015,7 hPa 0,0 l/m 0 min 0 min 0 W/m 16,7 km/h (3 Bft)
17.01.2015 21:14 1,4 C 0,6 C 89 % 1015,7 hPa 0,0 l/m 0 min 0 min 0 W/m 20,9 km/h (4 Bft)
17.01.2015 21:16 1,4 C 0,6 C 89 % 1015,7 hPa 0,0 l/m 0 min 0 min 0 W/m 14,6 km/h (3 Bft)
17.01.2015 21:18 1,4 C 0,6 C 89 % 1015,7 hPa 0,0 l/m 0 min 0 min 0 W/m 16,7 km/h (3 Bft)
17.01.2015 21:20 1,4 C 0,6 C 89 % 1015,7 hPa 0,0 l/m 0 min 0 min 0 W/m 14,6 km/h (3 Bft)
17.01.2015 21:22 1,4 C 0,6 C 89 % 1015,7 hPa 0,0 l/m 0 min 0 min 0 W/m 18,8 km/h (3 Bft)
17.01.2015 21:24 1,5 C 0,6 C 89 % 1015,7 hPa 0,0 l/m 0 min 0 min 0 W/m 14,6 km/h (3 Bft)
17.01.2015 21:26 1,5 C 0,6 C 88 % 1015,7 hPa 0,0 l/m 0 min 0 min 0 W/m 16,7 km/h (3 Bft)
17.01.2015 21:28 1,5 C 0,6 C 88 % 1015,7 hPa 0,0 l/m 0 min 0 min 0 W/m 10,5 km/h (2 Bft)
17.01.2015 21:30 1,6 C 0,6 C 88 % 1015,8 hPa 0,0 l/m 0 min 0 min 0 W/m 14,6 km/h (3 Bft)
17.01.2015 21:32 1,6 C 0,6 C 88 % 1015,7 hPa 0,0 l/m 0 min 0 min 0 W/m 16,7 km/h (3 Bft)
17.01.2015 21:34 1,6 C 0,6 C 88 % 1015,6 hPa 0,0 l/m 0 min 0 min 0 W/m 14,6 km/h (3 Bft)
17.01.2015 21:36 1,6 C 0,6 C 87 % 1015,7 hPa 0,0 l/m 0 min 0 min 0 W/m 14,6 km/h (3 Bft)
17.01.2015 21:38 1,6 C 0,6 C 87 % 1015,7 hPa 0,0 l/m 0 min 0 min 0 W/m 18,8 km/h (3 Bft)
17.01.2015 21:40 1,6 C 0,6 C 87 % 1015,7 hPa 0,0 l/m 0 min 0 min 0 W/m 16,7 km/h (3 Bft)
17.01.2015 21:42 1,6 C 0,6 C 87 % 1015,7 hPa 0,0 l/m 0 min 0 min 0 W/m 18,8 km/h (3 Bft)
17.01.2015 21:44 1,7 C 0,6 C 87 % 1015,7 hPa 0,0 l/m 0 min 0 min 0 W/m 18,8 km/h (3 Bft)
17.01.2015 21:46 1,7 C 0,6 C 87 % 1015,6 hPa 0,0 l/m 0 min 0 min 0 W/m 14,6 km/h (3 Bft)
17.01.2015 21:48 1,7 C 0,6 C 87 % 1015,7 hPa 0,0 l/m 0 min 0 min 0 W/m 12,6 km/h (3 Bft)
17.01.2015 21:50 1,7 C 0,6 C 87 % 1015,7 hPa 0,0 l/m 0 min 0 min 0 W/m 12,6 km/h (3 Bft)
17.01.2015 21:52 1,7 C 0,6 C 86 % 1015,7 hPa 0,0 l/m 0 min 0 min 0 W/m 12,6 km/h (3 Bft)
17.01.2015 21:54 1,7 C 0,6 C 86 % 1015,6 hPa 0,0 l/m 0 min 0 min 0 W/m 10,5 km/h (2 Bft)
17.01.2015 21:56 1,7 C 0,6 C 86 % 1015,6 hPa 0,0 l/m 0 min 0 min 0 W/m 14,6 km/h (3 Bft)
17.01.2015 21:58 1,7 C 0,6 C 86 % 1015,6 hPa 0,0 l/m 0 min 0 min 0 W/m 14,6 km/h (3 Bft)
17.01.2015 22:00 1,7 C 0,6 C 86 % 1015,6 hPa 0,0 l/m 0 min 0 min 0 W/m 16,7 km/h (3 Bft)
17.01.2015 22:02 1,7 C 0,6 C 86 % 1015,6 hPa 0,0 l/m 0 min 0 min 0 W/m 31,4 km/h (5 Bft)
17.01.2015 22:04 1,7 C 0,6 C 86 % 1015,6 hPa 0,0 l/m 0 min 0 min 0 W/m 23,0 km/h (4 Bft)
17.01.2015 22:06 1,7 C 0,6 C 86 % 1015,6 hPa 0,0 l/m 0 min 0 min 0 W/m 14,6 km/h (3 Bft)
17.01.2015 22:08 1,7 C 0,6 C 86 % 1015,6 hPa 0,0 l/m 0 min 0 min 0 W/m 18,8 km/h (3 Bft)
17.01.2015 22:10 1,7 C 0,6 C 86 % 1015,6 hPa 0,0 l/m 0 min 0 min 0 W/m 16,7 km/h (3 Bft)
17.01.2015 22:12 1,7 C 1,1 C 86 % 1015,6 hPa 0,0 l/m 0 min 0 min 0 W/m 16,7 km/h (3 Bft)
17.01.2015 22:14 1,7 C 0,6 C 86 % 1015,6 hPa 0,0 l/m 0 min 0 min 0 W/m 12,6 km/h (3 Bft)
17.01.2015 22:16 1,7 C 0,6 C 86 % 1015,5 hPa 0,0 l/m 0 min 0 min 0 W/m 12,6 km/h (3 Bft)
17.01.2015 22:18 1,7 C 0,6 C 85 % 1015,6 hPa 0,0 l/m 0 min 0 min 0 W/m 16,7 km/h (3 Bft)
17.01.2015 22:20 1,8 C 0,6 C 85 % 1015,6 hPa 0,0 l/m 0 min 0 min 0 W/m 18,8 km/h (3 Bft)
17.01.2015 22:22 1,8 C 0,6 C 85 % 1015,5 hPa 0,0 l/m 0 min 0 min 0 W/m 18,8 km/h (3 Bft)
17.01.2015 22:24 1,8 C 0,6 C 85 % 1015,6 hPa 0,0 l/m 0 min 0 min 0 W/m 25,1 km/h (4 Bft)
17.01.2015 22:26 1,8 C 1,1 C 85 % 1015,5 hPa 0,0 l/m 0 min 0 min 0 W/m 27,2 km/h (4 Bft)
17.01.2015 22:28 1,8 C 1,1 C 85 % 1015,5 hPa 0,0 l/m 0 min 0 min 0 W/m 20,9 km/h (4 Bft)
17.01.2015 22:30 1,8 C 0,6 C 85 % 1015,5 hPa 0,0 l/m 0 min 0 min 0 W/m 16,7 km/h (3 Bft)
17.01.2015 22:32 1,8 C 0,6 C 85 % 1015,5 hPa 0,0 l/m 0 min 0 min 0 W/m 18,8 km/h (3 Bft)
17.01.2015 22:34 1,8 C 1,1 C 85 % 1015,6 hPa 0,0 l/m 0 min 0 min 0 W/m 16,7 km/h (3 Bft)
17.01.2015 22:36 1,8 C 1,1 C 85 % 1015,5 hPa 0,0 l/m 0 min 0 min 0 W/m 23,0 km/h (4 Bft)
17.01.2015 22:38 1,8 C 0,6 C 85 % 1015,5 hPa 0,0 l/m 0 min 0 min 0 W/m 14,6 km/h (3 Bft)
17.01.2015 22:40 1,9 C 0,6 C 85 % 1015,6 hPa 0,0 l/m 0 min 0 min 0 W/m 14,6 km/h (3 Bft)
17.01.2015 22:42 1,9 C 0,6 C 85 % 1015,5 hPa 0,0 l/m 0 min 0 min 0 W/m 18,8 km/h (3 Bft)
17.01.2015 22:44 1,9 C 0,6 C 85 % 1015,5 hPa 0,0 l/m 0 min 0 min 0 W/m 16,7 km/h (3 Bft)
17.01.2015 22:46 1,9 C 0,6 C 85 % 1015,5 hPa 0,0 l/m 0 min 0 min 0 W/m 12,6 km/h (3 Bft)
17.01.2015 22:48 1,9 C 0,6 C 85 % 1015,5 hPa 0,0 l/m 0 min 0 min 0 W/m 20,9 km/h (4 Bft)
17.01.2015 22:50 1,9 C 0,6 C 84 % 1015,5 hPa 0,0 l/m 0 min 0 min 0 W/m 20,9 km/h (4 Bft)
17.01.2015 22:52 1,9 C 0,6 C 84 % 1015,6 hPa 0,0 l/m 0 min 0 min 0 W/m 10,5 km/h (2 Bft)
17.01.2015 22:54 1,9 C 0,6 C 84 % 1015,5 hPa 0,0 l/m 0 min 0 min 0 W/m 8,4 km/h (2 Bft)
17.01.2015 22:56 1,9 C 0,6 C 84 % 1015,5 hPa 0,0 l/m 0 min 0 min 0 W/m 10,5 km/h (2 Bft)
17.01.2015 22:58 1,9 C 0,6 C 84 % 1015,5 hPa 0,0 l/m 0 min 0 min 0 W/m 10,5 km/h (2 Bft)
17.01.2015 23:00 1,9 C 0,0 C 84 % 1015,5 hPa 0,0 l/m 0 min 0 min 0 W/m 12,6 km/h (3 Bft)
17.01.2015 23:02 1,8 C 0,6 C 84 % 1015,5 hPa 0,0 l/m 0 min 0 min 0 W/m 18,8 km/h (3 Bft)
17.01.2015 23:04 1,8 C 0,6 C 84 % 1015,5 hPa 0,0 l/m 0 min 0 min 0 W/m 16,7 km/h (3 Bft)
17.01.2015 23:06 1,8 C 0,6 C 84 % 1015,5 hPa 0,0 l/m 0 min 0 min 0 W/m 18,8 km/h (3 Bft)
17.01.2015 23:08 1,8 C 0,0 C 84 % 1015,5 hPa 0,0 l/m 0 min 0 min 0 W/m 14,6 km/h (3 Bft)
17.01.2015 23:10 1,8 C 0,6 C 84 % 1015,5 hPa 0,0 l/m 0 min 0 min 0 W/m 14,6 km/h (3 Bft)
17.01.2015 23:12 1,8 C 0,6 C 84 % 1015,5 hPa 0,0 l/m 0 min 0 min 0 W/m 14,6 km/h (3 Bft)
17.01.2015 23:14 1,7 C 0,6 C 84 % 1015,5 hPa 0,0 l/m 0 min 0 min 0 W/m 20,9 km/h (4 Bft)
17.01.2015 23:16 1,7 C 0,6 C 84 % 1015,5 hPa 0,0 l/m 0 min 0 min 0 W/m 14,6 km/h (3 Bft)
17.01.2015 23:18 1,7 C 0,0 C 84 % 1015,5 hPa 0,0 l/m 0 min 0 min 0 W/m 14,6 km/h (3 Bft)
17.01.2015 23:20 1,7 C 0,0 C 84 % 1015,5 hPa 0,0 l/m 0 min 0 min 0 W/m 14,6 km/h (3 Bft)
17.01.2015 23:22 1,7 C 0,0 C 84 % 1015,5 hPa 0,0 l/m 0 min 0 min 0 W/m 14,6 km/h (3 Bft)
17.01.2015 23:24 1,7 C 0,0 C 84 % 1015,5 hPa 0,0 l/m 0 min 0 min 0 W/m 20,9 km/h (4 Bft)
17.01.2015 23:26 1,7 C 0,0 C 84 % 1015,5 hPa 0,0 l/m 0 min 0 min 0 W/m 14,6 km/h (3 Bft)
17.01.2015 23:28 1,7 C 0,0 C 84 % 1015,5 hPa 0,0 l/m 0 min 0 min 0 W/m 16,7 km/h (3 Bft)
17.01.2015 23:30 1,7 C 0,0 C 84 % 1015,5 hPa 0,0 l/m 0 min 0 min 0 W/m 20,9 km/h (4 Bft)
17.01.2015 23:32 1,6 C 0,0 C 84 % 1015,5 hPa 0,0 l/m 0 min 0 min 0 W/m 16,7 km/h (3 Bft)
17.01.2015 23:34 1,6 C 0,0 C 84 % 1015,5 hPa 0,0 l/m 0 min 0 min 0 W/m 16,7 km/h (3 Bft)
17.01.2015 23:36 1,6 C 0,0 C 84 % 1015,6 hPa 0,0 l/m 0 min 0 min 0 W/m 20,9 km/h (4 Bft)
17.01.2015 23:38 1,6 C 0,0 C 84 % 1015,5 hPa 0,0 l/m 0 min 0 min 0 W/m 23,0 km/h (4 Bft)
17.01.2015 23:40 1,6 C 0,6 C 84 % 1015,5 hPa 0,0 l/m 0 min 0 min 0 W/m 18,8 km/h (3 Bft)
17.01.2015 23:42 1,6 C 0,6 C 84 % 1015,5 hPa 0,0 l/m 0 min 0 min 0 W/m 16,7 km/h (3 Bft)
17.01.2015 23:44 1,6 C 0,6 C 84 % 1015,5 hPa 0,0 l/m 0 min 0 min 0 W/m 14,6 km/h (3 Bft)
17.01.2015 23:46 1,6 C 0,6 C 84 % 1015,5 hPa 0,0 l/m 0 min 0 min 0 W/m 16,7 km/h (3 Bft)
17.01.2015 23:48 1,6 C 0,6 C 84 % 1015,6 hPa 0,0 l/m 0 min 0 min 0 W/m 14,6 km/h (3 Bft)
17.01.2015 23:50 1,6 C 0,6 C 84 % 1015,5 hPa 0,0 l/m 0 min 0 min 0 W/m 16,7 km/h (3 Bft)
17.01.2015 23:52 1,6 C 0,6 C 84 % 1015,5 hPa 0,0 l/m 0 min 0 min 0 W/m 23,0 km/h (4 Bft)
17.01.2015 23:54 1,7 C 0,6 C 84 % 1015,5 hPa 0,0 l/m 0 min 0 min 0 W/m 18,8 km/h (3 Bft)
17.01.2015 23:56 1,7 C 0,6 C 84 % 1015,5 hPa 0,0 l/m 0 min 0 min 0 W/m 14,6 km/h (3 Bft)
17.01.2015 23:58 1,7 C 0,6 C 84 % 1015,5 hPa 0,0 l/m 0 min 0 min 0 W/m 16,7 km/h (3 Bft)
_ Min-Zeit 20:28 20:04 15:00 00:00 - - - - 10:16
Minimum _ 0,7 C -1,7 C 68 % 1008,6 hPa - - - - 2,1 km/h (1 Bft)
_ Max-Zeit 14:10 13:12 09:56 21:30 00:00 09:50 00:00 13:30 22:02
Maximum _ 6,4 C 4,4 C 97 % 1015,8 hPa 0,0 l/m 2 min 2 min 310 W/m 31,4 km/h
S (5 Bft)
Durchschnitt _ 2,9 C 1,4 C 88 % 1013,8 hPa #0,0 l/m #5:38 h #10 min. 147 W/m 12,2 km/h (2 Bft)
© 2015 W. Hausmann